MENDUMS POND: From 07/21/2018 00:00 to 09/21/2018 00:00

Date LAKE ELEVATION [FT] PRECIPITATION INCREMENT [IN] WATER TEMPERATURE [F] PRECIPITATION TOTAL [IN] AIR TEMPERATURE [F] RESERVOIR RELEASE [CFS]
09/19/2018 14:00 -- -- -- -- -- 9.0
09/19/2018 13:00 224.69 0.00 59.1 -- 62.7 9.0
09/19/2018 12:00 224.69 0.00 58.8 -- 61.1 9.0
09/19/2018 11:00 224.69 0.00 59.1 -- 60.3 9.0
09/19/2018 10:00 224.70 0.00 59.4 -- 60.3 9.8
09/19/2018 09:00 224.70 0.00 58.9 -- 59.8 9.8
09/19/2018 08:00 224.70 0.00 58.9 -- 59.4 9.8
09/19/2018 07:00 224.70 0.00 58.9 -- 60.2 10.0
09/19/2018 06:00 224.70 0.00 59.3 -- 61.5 9.8
09/19/2018 05:00 224.70 0.00 58.8 -- 63.1 9.8
09/19/2018 04:00 224.70 0.00 58.9 -- 65.1 10.0
09/19/2018 03:00 224.70 0.00 59.1 -- 66.1 10.0
09/19/2018 02:00 224.70 0.00 59.0 -- 65.2 10.0
09/19/2018 01:00 224.70 0.00 59.1 -- 65.8 10.0
09/19/2018 00:00 224.70 0.00 58.8 -- 67.1 10.0
09/18/2018 23:00 224.70 0.00 59.0 -- 66.7 10.0
09/18/2018 22:00 224.70 0.00 59.1 -- 67.3 10.0
09/18/2018 21:00 224.70 0.00 58.9 -- 68.5 9.8
09/18/2018 20:00 224.70 0.00 58.5 -- 70.4 10.0
09/18/2018 19:00 224.70 0.00 59.4 -- 73.6 9.0
09/18/2018 18:00 224.69 0.00 58.9 -- 77.8 9.0
09/18/2018 17:00 224.69 0.00 58.9 -- 76.8 9.0
09/18/2018 16:00 224.69 0.00 59.1 -- 77.0 9.0
09/18/2018 15:00 224.68 0.00 59.4 -- 75.1 9.0
09/18/2018 14:00 224.68 0.00 59.1 -- 71.0 8.5
09/18/2018 13:00 224.68 0.03 59.2 -- 68.5 8.5
09/18/2018 12:00 224.68 0.21 59.3 -- 67.3 7.8
09/18/2018 11:00 224.65 0.21 59.6 -- 67.0 6.3
09/18/2018 10:00 224.63 0.47 59.3 -- 66.9 4.8
09/18/2018 09:00 224.60 0.26 59.1 -- 67.3 3.3
09/18/2018 08:00 224.57 0.08 59.6 -- 67.1 2.0
09/18/2018 07:00 224.57 0.01 59.7 -- 67.6 2.0
09/18/2018 06:00 224.57 0.01 59.1 -- 68.6 2.0
09/18/2018 05:00 224.56 0.01 58.9 -- 68.6 2.0
09/18/2018 04:00 224.57 0.02 59.6 -- 68.8 2.0
09/18/2018 03:00 224.56 0.00 59.5 -- 68.6 2.0
09/18/2018 02:00 224.56 0.00 59.3 -- 69.4 2.0
09/18/2018 01:00 224.56 0.00 59.3 -- 69.2 2.0
09/18/2018 00:00 224.56 0.00 59.4 1.31 67.3 2.0
09/17/2018 23:00 224.56 0.00 59.0 -- 67.4 2.0
09/17/2018 22:00 224.57 0.00 59.3 -- 69.6 2.0
09/17/2018 21:00 224.56 0.00 59.0 -- 69.2 2.0
09/17/2018 20:00 224.57 0.00 59.0 -- 70.8 2.0
09/17/2018 19:00 224.57 0.00 59.3 -- 73.8 2.0
09/17/2018 18:00 224.57 0.00 59.4 -- 77.0 2.0
09/17/2018 17:00 224.57 0.00 59.3 -- 80.0 2.0
09/17/2018 16:00 224.57 0.00 59.0 -- 82.0 2.0
09/17/2018 15:00 224.58 0.00 59.1 -- 82.8 2.0
09/17/2018 14:00 224.57 0.00 59.3 -- 83.1 2.0
09/17/2018 13:00 224.57 0.00 59.1 -- 80.1 2.0
09/17/2018 12:00 224.57 0.00 59.0 -- 76.7 2.0
09/17/2018 11:00 224.57 0.00 59.0 -- 71.2 2.0
09/17/2018 10:00 224.57 0.00 59.3 -- 66.2 2.0
09/17/2018 09:00 224.57 0.00 58.8 -- 62.6 2.0
09/17/2018 08:00 224.57 0.00 59.4 -- 60.3 2.0
09/17/2018 07:00 224.57 0.00 58.9 -- 59.7 2.0
09/17/2018 06:00 224.58 0.00 58.9 -- 60.4 2.0
09/17/2018 05:00 224.57 0.00 59.1 -- 61.2 2.0
09/17/2018 04:00 224.57 0.00 59.0 -- 62.0 2.0
09/17/2018 03:00 224.57 0.00 59.1 -- 63.1 2.0
09/17/2018 02:00 224.57 0.00 59.2 -- 64.3 2.0
09/17/2018 01:00 224.57 0.00 59.0 -- 64.8 2.0
09/17/2018 00:00 224.58 0.00 59.0 0.00 65.7 2.0
09/16/2018 23:00 224.58 0.00 59.0 -- 67.0 2.0
09/16/2018 22:00 224.58 0.00 59.0 -- 68.4 2.0
09/16/2018 21:00 224.58 0.00 58.9 -- 70.3 2.0
09/16/2018 20:00 224.58 0.00 58.7 -- 73.1 2.0
09/16/2018 19:00 224.58 0.00 59.4 -- 81.2 2.3
09/16/2018 18:00 224.58 0.00 59.5 -- 83.5 2.3
09/16/2018 17:00 224.58 0.00 58.3 -- 85.1 2.3
09/16/2018 16:00 224.58 0.00 59.4 -- 88.5 3.0
09/16/2018 15:00 224.58 0.00 59.0 -- 87.1 2.8
09/16/2018 14:00 224.58 0.00 58.6 -- 87.5 3.0
09/16/2018 13:00 224.58 0.00 58.6 -- 85.0 2.8
09/16/2018 12:00 224.58 0.00 59.3 -- 87.4 3.0
09/16/2018 11:00 224.58 0.00 58.9 -- 77.4 3.0
09/16/2018 10:00 224.58 0.00 59.0 -- 66.4 2.5
09/16/2018 09:00 224.59 0.00 59.0 -- 59.2 3.0
09/16/2018 08:00 224.58 0.00 58.9 -- 56.9 3.0
09/16/2018 07:00 224.59 0.00 58.9 -- 56.7 3.0
09/16/2018 06:00 224.59 0.00 58.9 -- 57.0 3.0
09/16/2018 05:00 224.59 0.00 58.8 -- 57.4 3.0
09/16/2018 04:00 224.59 0.00 58.8 -- 57.8 3.0
09/16/2018 03:00 224.59 0.00 59.0 -- 58.1 3.0
09/16/2018 02:00 224.59 0.00 58.7 -- 58.7 3.0
09/16/2018 01:00 224.59 0.00 58.8 -- 59.5 3.0
09/16/2018 00:00 224.59 0.00 58.9 0.00 60.5 3.0
09/15/2018 23:00 224.59 0.00 58.8 -- 61.4 3.0
09/15/2018 22:00 224.59 0.00 58.6 -- 62.9 3.0
09/15/2018 21:00 224.59 0.00 59.0 -- 64.3 3.0
09/15/2018 20:00 224.59 0.00 58.6 -- 66.5 3.0
09/15/2018 19:00 224.59 0.00 58.7 -- 72.5 3.0
09/15/2018 18:00 224.59 0.00 58.9 -- 75.6 3.0
09/15/2018 17:00 224.59 0.00 58.6 -- 76.6 3.0
09/15/2018 16:00 224.59 0.00 58.8 -- 73.3 3.0
09/15/2018 15:00 224.59 0.00 59.0 -- 74.0 3.0
09/15/2018 14:00 224.59 0.00 58.4 -- 69.3 3.0
09/15/2018 13:00 224.59 0.00 58.7 -- 68.6 3.0
09/15/2018 12:00 224.59 0.00 58.8 -- 67.3 3.0
09/15/2018 11:00 224.59 0.00 59.1 -- 65.2 3.0
09/15/2018 10:00 224.60 0.00 58.9 -- 63.5 3.0
09/15/2018 09:00 224.60 0.00 58.3 -- 62.9 3.0
09/15/2018 08:00 224.59 0.00 58.6 -- 62.1 3.0
09/15/2018 07:00 224.60 0.00 59.1 -- 61.9 3.0
09/15/2018 06:00 224.60 0.00 58.7 -- 61.6 3.0
09/15/2018 05:00 224.59 0.00 58.7 -- 61.2 3.0
09/15/2018 04:00 224.60 0.00 58.7 -- 60.9 3.0
09/15/2018 03:00 224.60 0.00 58.7 -- 60.8 3.0
09/15/2018 02:00 224.60 0.00 58.7 -- 60.5 3.0
09/15/2018 01:00 224.60 0.00 58.6 -- 60.0 3.0
09/15/2018 00:00 224.60 0.00 58.5 0.00 59.9 3.0
09/14/2018 23:00 224.60 0.00 58.7 -- 60.4 3.3
09/14/2018 22:00 224.60 0.00 58.6 -- 61.0 3.8
09/14/2018 21:00 224.60 0.00 58.4 -- 61.9 4.0
09/14/2018 20:00 224.60 0.00 58.5 -- 64.5 3.8
09/14/2018 19:00 224.60 0.00 58.5 -- 72.4 3.8
09/14/2018 18:00 224.60 0.00 58.6 -- 78.6 4.0
09/14/2018 17:00 224.60 0.00 58.7 -- 78.0 4.0
09/14/2018 16:00 224.60 0.00 58.2 -- 78.4 4.0
09/14/2018 15:00 224.61 0.00 58.7 -- 77.5 4.0
09/14/2018 14:00 224.61 0.00 58.9 -- 74.0 4.0
09/14/2018 13:00 224.61 0.00 58.7 -- 70.8 4.0
09/14/2018 12:00 224.61 0.00 58.5 -- 69.9 4.0
09/14/2018 11:00 224.61 0.00 58.6 -- 65.5 4.0
09/14/2018 10:00 224.61 0.00 58.5 -- 62.5 4.0
09/14/2018 09:00 224.61 0.00 58.6 -- 58.5 4.0
09/14/2018 08:00 224.61 0.00 58.5 -- 54.9 4.0
09/14/2018 07:00 224.61 0.00 58.6 -- 54.0 4.0
09/14/2018 06:00 224.61 0.00 58.5 -- 55.1 4.0
09/14/2018 05:00 224.61 0.00 58.6 -- 56.0 4.0
09/14/2018 04:00 224.61 0.00 58.5 -- 56.6 4.0
09/14/2018 03:00 224.61 0.00 58.4 -- 57.6 4.0
09/14/2018 02:00 224.61 0.00 58.5 -- 58.6 4.0
09/14/2018 01:00 224.61 0.00 58.6 -- 59.3 4.0
09/14/2018 00:00 224.61 0.00 58.5 0.00 60.5 4.0
09/13/2018 23:00 224.61 0.00 58.6 -- 61.6 4.0
09/13/2018 22:00 224.61 0.00 58.5 -- 63.1 4.0
09/13/2018 21:00 224.62 0.00 58.6 -- 65.0 4.0
09/13/2018 20:00 224.61 0.00 58.7 -- 67.8 4.0
09/13/2018 19:00 224.61 0.00 58.5 -- 72.8 4.0
09/13/2018 18:00 224.61 0.00 58.5 -- 78.4 4.0
09/13/2018 17:00 224.62 0.00 58.8 -- 75.8 4.0
09/13/2018 16:00 224.61 0.00 58.4 -- 75.6 4.0
09/13/2018 15:00 224.62 0.00 58.3 -- 73.7 4.0
09/13/2018 14:00 224.62 0.00 58.4 -- 74.4 4.8
09/13/2018 13:00 224.62 0.00 58.7 -- 72.9 4.5
09/13/2018 12:00 224.61 0.00 58.5 -- 73.0 4.0
09/13/2018 11:00 224.62 0.00 58.2 -- 70.0 4.5
09/13/2018 10:00 224.62 0.00 58.4 -- 66.8 4.5
09/13/2018 09:00 224.62 0.00 58.6 -- 64.9 5.0
09/13/2018 08:00 224.62 0.00 58.4 -- 62.9 5.0
09/13/2018 07:00 224.62 0.00 58.5 -- 62.9 4.8
09/13/2018 06:00 224.62 0.00 58.5 -- 63.1 5.0
09/13/2018 05:00 224.62 0.00 58.4 -- 63.3 4.5
09/13/2018 04:00 224.62 0.00 58.3 -- 63.3 5.0
09/13/2018 03:00 224.62 0.00 58.3 -- 63.4 5.0
09/13/2018 02:00 224.62 0.00 58.6 -- 63.4 5.0
09/13/2018 01:00 224.62 0.00 58.4 -- 63.7 5.0
09/13/2018 00:00 224.62 0.00 58.4 0.00 63.4 4.8
09/12/2018 23:00 224.62 0.00 58.4 -- 64.1 5.0
09/12/2018 22:00 224.62 0.00 58.2 -- 64.4 5.0
09/12/2018 21:00 224.62 0.00 58.5 -- 64.6 5.0
09/12/2018 20:00 224.62 0.00 58.5 -- 65.2 5.0
09/12/2018 19:00 224.63 0.00 58.3 -- 67.0 5.0
09/12/2018 18:00 224.62 0.00 58.5 -- 66.3 4.8
09/12/2018 17:00 224.62 0.00 58.3 -- 67.9 5.0
09/12/2018 16:00 224.62 0.01 58.3 -- 67.4 5.0
09/12/2018 15:00 224.62 0.00 58.7 -- 65.9 5.0
09/12/2018 14:00 224.62 0.00 58.4 -- 66.3 4.5
09/12/2018 13:00 224.62 0.00 58.3 -- 66.8 4.3
09/12/2018 12:00 224.62 0.00 58.4 -- 65.7 4.8
09/12/2018 11:00 224.62 0.00 58.5 -- 66.7 4.3
09/12/2018 10:00 224.62 0.00 58.3 -- 66.7 5.0
09/12/2018 09:00 224.62 0.02 58.2 -- 66.4 4.8
09/12/2018 08:00 224.62 0.00 58.5 -- 65.5 4.5
09/12/2018 07:00 224.62 0.00 58.5 -- 65.4 4.0
09/12/2018 06:00 224.62 0.01 58.3 -- 65.5 4.0
09/12/2018 05:00 224.61 0.05 58.3 -- 65.6 4.0
09/12/2018 04:00 224.61 0.00 58.5 -- 65.7 4.0
09/12/2018 03:00 224.61 0.00 58.4 -- 66.0 4.0
09/12/2018 02:00 224.61 0.01 58.3 -- 66.2 4.0
09/12/2018 01:00 224.61 0.00 58.4 -- 66.3 4.0
09/12/2018 00:00 224.60 0.00 58.4 0.10 66.4 4.0
09/11/2018 23:00 224.61 0.00 58.3 -- 66.6 4.0
09/11/2018 22:00 224.61 0.00 58.2 -- 66.8 4.0
09/11/2018 21:00 224.61 0.00 58.1 -- 68.2 4.0
09/11/2018 20:00 224.60 0.00 58.7 -- 70.6 4.0
09/11/2018 19:00 224.60 0.00 58.6 -- 75.4 4.0
09/11/2018 18:00 224.60 0.00 58.3 -- 74.2 3.8
09/11/2018 17:00 224.60 0.00 58.2 -- 73.0 3.0
09/11/2018 16:00 224.60 0.00 58.3 -- 74.2 3.8
09/11/2018 15:00 224.60 0.00 58.3 -- 70.9 3.3
09/11/2018 14:00 224.59 0.00 58.2 -- 70.3 3.0
09/11/2018 13:00 224.60 0.00 58.3 -- 67.1 3.0
09/11/2018 12:00 224.59 0.00 58.2 -- 64.0 3.0
09/11/2018 11:00 224.60 0.00 58.3 -- 62.7 3.0
09/11/2018 10:00 224.60 0.00 58.2 -- 61.3 3.0
09/11/2018 09:00 224.59 0.01 58.2 -- 60.6 3.0
09/11/2018 08:00 224.59 0.01 58.2 -- 60.1 3.0
09/11/2018 07:00 224.59 0.02 58.2 -- 59.4 3.0
09/11/2018 06:00 224.59 0.11 58.2 -- 59.4 2.8
09/11/2018 05:00 224.57 0.14 58.2 -- 58.5 1.8
09/11/2018 04:00 224.55 0.31 58.3 -- 58.1 1.0
09/11/2018 03:00 224.52 0.11 58.1 -- 58.2 0.5
09/11/2018 02:00 224.52 0.21 58.1 -- 58.0 0.0
09/11/2018 01:00 224.50 0.08 58.3 -- 59.0 0.0
09/11/2018 00:00 224.50 0.06 58.1 1.00 59.5 0.0
09/10/2018 23:00 224.48 0.09 57.9 -- 59.5 0.0
09/10/2018 22:00 224.47 0.03 58.2 -- 59.2 0.0
09/10/2018 21:00 224.47 0.08 58.2 -- 58.8 0.0
09/10/2018 20:00 224.46 0.02 58.3 -- 59.3 0.0
09/10/2018 19:00 224.46 0.01 57.8 -- 59.6 0.0
09/10/2018 18:00 224.46 0.00 58.2 -- 60.5 0.0
09/10/2018 17:00 224.47 0.00 58.4 -- 61.2 0.0
09/10/2018 16:00 224.46 0.00 58.1 -- 63.1 0.0
09/10/2018 15:00 224.47 0.00 58.3 -- 64.0 0.0
09/10/2018 14:00 224.46 0.00 58.1 -- 63.7 0.0
09/10/2018 13:00 224.46 0.00 58.2 -- 60.8 0.0
09/10/2018 12:00 224.47 0.00 58.2 -- 58.5 0.0
09/10/2018 11:00 224.46 0.00 58.1 -- 55.9 0.0
09/10/2018 10:00 224.47 0.00 58.2 -- 53.8 0.0
09/10/2018 09:00 224.46 0.00 58.2 -- 51.9 0.0
09/10/2018 08:00 224.46 0.00 58.2 -- 50.6 0.0
09/10/2018 07:00 224.47 0.00 58.3 -- 50.7 0.0
09/10/2018 06:00 224.47 0.00 58.1 -- 51.4 0.0
09/10/2018 05:00 224.47 0.00 58.2 -- 47.9 0.0
09/10/2018 04:00 224.47 0.00 58.1 -- 47.6 0.0
09/10/2018 03:00 224.46 0.00 58.1 -- 49.0 0.0
09/10/2018 02:00 224.47 0.00 58.2 -- 49.7 0.0
09/10/2018 01:00 224.47 0.00 57.9 -- 47.7 0.0
09/10/2018 00:00 224.47 0.00 57.9 0.29 49.0 0.0
09/09/2018 23:00 224.47 0.00 58.4 -- 48.8 0.0
09/09/2018 22:00 224.47 0.00 58.3 -- 49.6 0.0
09/09/2018 21:00 224.47 0.00 57.8 -- 51.2 0.0
09/09/2018 20:00 224.47 0.00 57.9 -- 53.7 0.0
09/09/2018 19:00 224.47 0.00 58.6 -- 57.1 0.0
09/09/2018 18:00 224.47 0.00 58.0 -- 59.5 0.0
09/09/2018 17:00 224.47 0.00 58.1 -- 62.3 0.0
09/09/2018 16:00 224.47 0.00 58.1 -- 61.1 0.0
09/09/2018 15:00 224.47 0.00 58.3 -- 60.5 0.0
09/09/2018 14:00 224.47 0.00 58.0 -- 60.4 0.0
09/09/2018 13:00 224.48 0.00 58.2 -- 59.5 0.0
09/09/2018 12:00 224.47 0.00 58.0 -- 58.2 0.0
09/09/2018 11:00 224.47 0.00 58.1 -- 56.2 0.0
09/09/2018 10:00 224.47 0.00 58.1 -- 54.2 0.0
09/09/2018 09:00 224.48 0.00 58.0 -- 52.7 0.0
09/09/2018 08:00 224.47 0.00 57.9 -- 51.3 0.0
09/09/2018 07:00 224.48 0.00 58.1 -- 50.6 0.0
09/09/2018 06:00 224.48 0.00 58.0 -- 51.7 0.0
09/09/2018 05:00 224.48 0.00 58.1 -- 52.3 0.0
09/09/2018 04:00 224.48 0.00 58.0 -- 52.8 0.0
09/09/2018 03:00 224.48 0.00 57.9 -- 53.5 0.0
09/09/2018 02:00 224.49 0.00 58.0 -- 54.9 0.0
09/09/2018 01:00 224.49 0.00 58.0 -- 54.9 0.0
09/09/2018 00:00 224.49 0.00 58.0 0.00 54.9 0.0
09/08/2018 23:00 224.49 0.00 58.0 -- 55.0 0.0
09/08/2018 22:00 224.49 0.00 58.0 -- 55.1 0.0
09/08/2018 21:00 224.49 0.00 58.0 -- 55.2 0.0
09/08/2018 20:00 224.49 0.00 58.0 -- 55.2 0.0
09/08/2018 19:00 224.49 0.00 58.0 -- 55.3 0.0
09/08/2018 18:00 224.49 0.00 58.0 -- 55.4 0.0
09/08/2018 17:00 224.49 0.00 58.0 -- 55.5 0.0
09/08/2018 16:00 224.49 0.00 58.0 -- 55.5 0.0
09/08/2018 15:00 224.49 0.00 58.0 -- 55.6 0.0
09/08/2018 14:00 224.49 0.00 57.9 -- 55.7 0.0
09/08/2018 13:00 224.49 0.00 57.9 -- 55.8 0.0
09/08/2018 12:00 224.49 0.00 57.9 -- 55.8 0.0
09/08/2018 11:00 224.49 0.00 57.9 -- 55.9 0.0
09/08/2018 10:00 224.49 0.00 57.9 -- 56.0 0.0
09/08/2018 09:00 224.49 0.00 57.9 -- 56.1 0.0
09/08/2018 08:00 224.49 0.00 57.9 -- 56.2 0.0
09/08/2018 07:00 224.49 0.00 57.9 -- 56.2 0.0
09/08/2018 06:00 224.49 0.00 57.9 -- 56.3 0.0
09/08/2018 05:00 224.50 0.00 57.9 -- 56.4 0.0
09/08/2018 04:00 224.50 0.00 57.9 -- 56.5 0.0
09/08/2018 03:00 224.50 0.00 57.9 -- 56.5 0.0
09/08/2018 02:00 224.50 0.00 57.9 -- 56.6 0.0
09/08/2018 01:00 224.50 0.00 57.9 -- 56.7 0.0
09/08/2018 00:00 224.50 0.00 57.9 0.00 56.8 0.0
09/07/2018 23:00 224.50 0.00 57.9 -- 56.8 0.0
09/07/2018 22:00 224.50 0.00 57.9 -- 56.9 0.0
09/07/2018 21:00 224.50 0.00 57.9 -- 57.0 0.0
09/07/2018 20:00 224.50 0.00 57.9 -- 57.1 0.0
09/07/2018 19:00 224.50 0.00 57.9 -- 57.1 0.0
09/07/2018 18:00 224.50 0.00 57.8 -- 57.2 0.0
09/07/2018 17:00 224.50 0.00 57.8 -- 57.3 0.0
09/07/2018 16:00 224.50 0.00 57.8 -- 57.4 0.0
09/07/2018 15:00 224.50 0.00 57.8 -- 57.5 0.0
09/07/2018 14:00 224.50 0.00 57.8 -- 57.5 0.0
09/07/2018 13:00 224.50 0.00 57.8 -- 57.6 0.0
09/07/2018 12:00 224.50 0.00 57.8 -- 57.7 0.0
09/07/2018 11:00 224.50 0.00 57.8 -- 57.8 0.0
09/07/2018 10:00 224.50 0.00 57.8 -- 57.8 0.0
09/07/2018 09:00 224.50 0.00 57.8 -- 57.9 0.0
09/07/2018 08:00 224.50 0.00 57.8 -- 57.5 0.0
09/07/2018 07:00 224.50 0.00 57.4 -- 58.1 0.0
09/07/2018 06:00 224.50 0.00 57.3 -- 59.4 0.0
09/07/2018 05:00 224.51 0.00 57.9 -- 60.7 0.0
09/07/2018 04:00 224.50 0.00 57.4 -- 64.3 0.0
09/07/2018 03:00 224.50 0.00 57.6 -- 65.0 0.0
09/07/2018 02:00 224.50 0.00 57.6 -- 65.6 0.0
09/07/2018 01:00 224.51 0.00 57.4 -- 66.2 0.0
09/07/2018 00:00 224.50 0.00 57.6 0.00 67.6 0.0
09/06/2018 23:00 224.50 0.00 57.9 -- 69.4 0.0
09/06/2018 22:00 224.51 0.00 57.1 -- 70.2 0.0
09/06/2018 21:00 224.51 0.00 56.8 -- 71.4 0.0
09/06/2018 20:00 224.50 0.00 57.2 -- 71.9 0.0
09/06/2018 19:00 224.51 0.00 57.3 -- 73.4 0.0
09/06/2018 18:00 224.51 0.01 58.3 -- 74.0 0.0
09/06/2018 17:00 224.50 0.03 58.1 -- 74.5 0.0
09/06/2018 16:00 224.50 0.14 58.9 -- 74.3 0.0
09/06/2018 15:00 224.49 0.00 58.1 -- 79.3 0.0
09/06/2018 14:00 224.49 0.00 58.5 -- 90.9 0.0
09/06/2018 13:00 224.49 0.00 58.5 -- 88.0 0.0
09/06/2018 12:00 224.50 0.00 58.6 -- 85.7 0.0
09/06/2018 11:00 224.49 0.00 58.3 -- 82.7 0.0
09/06/2018 10:00 224.49 0.00 58.6 -- 78.8 0.0
09/06/2018 09:00 224.49 0.00 58.5 -- 74.3 0.0
09/06/2018 08:00 224.49 0.00 58.6 -- 72.3 0.0
09/06/2018 07:00 224.49 0.00 58.2 -- 71.8 0.0
09/06/2018 06:00 224.49 0.00 58.3 -- 71.8 0.0
09/06/2018 05:00 224.49 0.00 58.9 -- 72.7 0.0
09/06/2018 04:00 224.49 0.00 57.8 -- 71.5 0.0
09/06/2018 03:00 224.49 0.00 58.7 -- 70.9 0.0
09/06/2018 02:00 224.50 0.00 58.4 -- 71.3 0.0
09/06/2018 01:00 224.50 0.00 58.1 -- 71.1 0.0
09/06/2018 00:00 224.50 0.00 58.6 0.18 71.3 0.0
09/05/2018 23:00 224.49 0.00 58.3 -- 72.2 0.0
09/05/2018 22:00 224.49 0.00 58.6 -- 73.3 0.0
09/05/2018 21:00 224.50 0.00 58.3 -- 75.3 0.0
09/05/2018 20:00 224.49 0.00 58.1 -- 79.1 0.0
09/05/2018 19:00 224.50 0.00 58.4 -- 85.4 0.0
09/05/2018 18:00 224.49 0.00 58.4 -- 88.7 0.0
09/05/2018 17:00 224.50 0.00 58.2 -- 88.1 0.0
09/05/2018 16:00 224.50 0.00 58.4 -- 88.6 0.0
09/05/2018 15:00 224.50 0.00 58.4 -- 87.7 0.0
09/05/2018 14:00 224.50 0.00 58.3 -- 86.1 0.0
09/05/2018 13:00 224.50 0.00 58.3 -- 83.6 0.0
09/05/2018 12:00 224.50 0.00 58.3 -- 81.1 0.0
09/05/2018 11:00 224.50 0.00 58.3 -- 78.6 0.0
09/05/2018 10:00 224.50 0.00 58.3 -- 76.1 0.0
09/05/2018 09:00 224.50 0.00 58.3 -- 73.6 0.0
09/05/2018 08:00 224.50 0.00 58.3 -- 71.1 0.0
09/05/2018 07:00 224.50 0.00 58.3 -- 68.6 0.0
09/05/2018 06:00 224.50 0.00 58.3 -- 66.1 0.0
09/05/2018 05:00 224.50 0.00 58.3 -- 63.6 0.0
09/05/2018 04:00 224.50 0.00 58.3 -- 63.6 0.0
09/05/2018 03:00 224.50 0.00 58.4 -- 64.1 0.0
09/05/2018 02:00 224.50 0.00 58.3 -- 64.0 0.0
09/05/2018 01:00 224.50 0.00 58.2 -- 66.4 0.0
09/05/2018 00:00 224.50 0.00 58.1 0.00 66.5 0.0
09/04/2018 23:00 224.50 0.00 58.3 -- 67.7 0.0
09/04/2018 22:00 224.50 0.00 58.2 -- 69.0 0.0
09/04/2018 21:00 224.50 0.00 58.0 -- 71.5 0.0
09/04/2018 20:00 224.50 0.00 58.3 -- 76.0 0.0
09/04/2018 19:00 224.50 0.00 58.4 -- 86.3 0.0
09/04/2018 18:00 224.50 0.00 58.2 -- 87.9 0.0
09/04/2018 17:00 224.50 0.00 58.2 -- 87.6 0.0
09/04/2018 16:00 224.50 0.00 57.9 -- 87.0 0.0
09/04/2018 15:00 224.50 0.00 58.3 -- 87.4 0.0
09/04/2018 14:00 224.50 0.00 58.3 -- 83.5 0.0
09/04/2018 13:00 224.50 0.00 58.5 -- 85.1 0.0
09/04/2018 12:00 224.50 0.00 58.5 -- 86.0 0.0
09/04/2018 11:00 224.50 0.00 58.1 -- 83.2 0.0
09/04/2018 10:00 224.50 0.00 57.8 -- 78.1 0.0
09/04/2018 09:00 224.51 0.00 58.4 -- 71.4 0.0
09/04/2018 08:00 224.50 0.00 58.3 -- 69.4 0.0
09/04/2018 07:00 224.51 0.00 58.2 -- 71.1 0.0
09/04/2018 06:00 224.51 0.00 58.1 -- 72.5 0.0
09/04/2018 05:00 224.51 0.00 58.2 -- 72.2 0.0
09/04/2018 04:00 224.50 0.00 58.2 -- 71.0 0.0
09/04/2018 03:00 224.50 0.00 58.4 -- 71.9 0.0
09/04/2018 02:00 224.51 0.00 58.2 -- 73.6 0.0
09/04/2018 01:00 224.50 0.00 57.9 -- 77.7 0.0
09/04/2018 00:00 224.50 0.00 58.1 0.00 76.2 0.0
09/03/2018 23:00 224.50 0.00 58.0 -- 74.8 0.0
09/03/2018 22:00 224.50 0.00 58.1 -- 76.2 0.0
09/03/2018 21:00 224.50 0.00 57.8 -- 76.8 0.0
09/03/2018 20:00 224.50 0.00 58.1 -- 81.3 0.0
09/03/2018 19:00 224.50 0.00 57.8 -- 90.2 0.0
09/03/2018 18:00 224.50 0.00 58.0 -- 90.5 0.0
09/03/2018 17:00 224.50 0.00 58.0 -- 90.6 0.0
09/03/2018 16:00 224.50 0.00 58.0 -- 91.6 0.0
09/03/2018 15:00 224.50 0.00 58.3 -- 89.0 0.0
09/03/2018 14:00 224.51 0.00 58.0 -- 87.0 0.0
09/03/2018 13:00 224.51 0.00 57.7 -- 85.5 0.0
09/03/2018 12:00 224.50 0.00 58.1 -- 82.2 0.0
09/03/2018 11:00 224.50 0.00 58.0 -- 80.0 0.0
09/03/2018 10:00 224.50 0.00 58.0 -- 76.2 0.0
09/03/2018 09:00 224.50 0.00 57.8 -- 70.4 0.0
09/03/2018 08:00 224.51 0.00 58.3 -- 66.0 0.0
09/03/2018 07:00 224.51 0.00 58.1 -- 65.5 0.0
09/03/2018 06:00 224.51 0.00 57.8 -- 65.5 0.0
09/03/2018 05:00 224.50 0.00 57.7 -- 64.5 0.0
09/03/2018 04:00 224.51 0.00 58.0 -- 64.2 0.0
09/03/2018 03:00 224.50 0.00 58.1 -- 63.8 0.0
09/03/2018 02:00 224.50 0.00 58.2 -- 63.9 0.0
09/03/2018 01:00 224.51 0.00 57.7 -- 64.5 0.0
09/03/2018 00:00 224.51 0.00 58.1 0.00 65.5 0.0
09/02/2018 23:00 224.51 0.00 58.0 -- 66.6 0.0
09/02/2018 22:00 224.51 0.00 58.0 -- 67.8 0.0
09/02/2018 21:00 224.51 0.00 57.8 -- 70.6 0.0
09/02/2018 20:00 224.50 0.00 57.8 -- 75.5 0.0
09/02/2018 19:00 224.51 0.00 57.9 -- 76.6 0.0
09/02/2018 18:00 224.51 0.00 57.8 -- 80.1 0.0
09/02/2018 17:00 224.51 0.00 57.8 -- 78.8 0.0
09/02/2018 16:00 224.51 0.00 57.8 -- 81.0 0.0
09/02/2018 15:00 224.51 0.00 58.3 -- 81.5 0.0
09/02/2018 14:00 224.50 0.00 57.9 -- 78.3 0.0
09/02/2018 13:00 224.51 0.00 57.8 -- 76.7 0.0
09/02/2018 12:00 224.50 0.00 57.9 -- 73.6 0.0
09/02/2018 11:00 224.51 0.00 57.8 -- 69.7 0.0
09/02/2018 10:00 224.51 0.00 57.8 -- 63.8 0.0
09/02/2018 09:00 224.51 0.00 57.7 -- 61.5 0.0
09/02/2018 08:00 224.51 0.00 57.9 -- 58.0 0.0
09/02/2018 07:00 224.51 0.00 57.9 -- 56.5 0.0
09/02/2018 06:00 224.51 0.00 57.9 -- 56.5 0.0
09/02/2018 05:00 224.51 0.00 57.8 -- 56.5 0.0
09/02/2018 04:00 224.51 0.00 57.7 -- 56.5 0.0
09/02/2018 03:00 224.51 0.00 58.0 -- 57.2 0.0
09/02/2018 02:00 224.51 0.00 57.5 -- 57.9 0.0
09/02/2018 01:00 224.51 0.00 58.0 -- 59.1 0.0
09/02/2018 00:00 224.51 0.00 57.9 0.00 60.7 0.0
09/01/2018 23:00 224.51 0.00 57.6 -- 60.4 0.0
09/01/2018 22:00 224.51 0.00 57.8 -- 60.7 0.0
09/01/2018 21:00 224.51 0.00 57.7 -- 62.6 0.0
09/01/2018 20:00 224.51 0.00 57.9 -- 66.5 0.0
09/01/2018 19:00 224.51 0.00 57.6 -- 68.5 0.0
09/01/2018 18:00 224.51 0.00 57.8 -- 68.2 0.0
09/01/2018 17:00 224.52 0.00 57.8 -- 70.6 0.0
09/01/2018 16:00 224.52 0.00 57.4 -- 71.6 0.0
09/01/2018 15:00 224.52 0.00 57.7 -- 72.4 0.0
09/01/2018 14:00 224.51 0.00 57.9 -- 72.8 0.0
09/01/2018 13:00 224.52 0.00 57.5 -- 71.0 0.0
09/01/2018 12:00 224.52 0.00 57.9 -- 68.0 0.0
09/01/2018 11:00 224.51 0.00 57.7 -- 64.9 0.0
09/01/2018 10:00 224.52 0.00 57.3 -- 62.4 0.0
09/01/2018 09:00 224.52 0.00 57.5 -- 60.6 0.0
09/01/2018 08:00 224.52 0.00 57.6 -- 56.1 0.0
09/01/2018 07:00 224.52 0.00 57.7 -- 55.2 0.0
09/01/2018 06:00 224.52 0.00 57.7 -- 55.3 0.0
09/01/2018 05:00 224.52 0.00 57.3 -- 54.7 0.0
09/01/2018 04:00 224.52 0.00 57.6 -- 52.6 0.0
09/01/2018 03:00 224.53 0.00 57.8 -- 51.4 0.0
09/01/2018 02:00 224.52 0.00 57.4 -- 52.3 0.0
09/01/2018 01:00 224.52 0.00 57.5 -- 53.2 0.0
09/01/2018 00:00 224.52 0.00 57.8 0.00 53.8 0.0
08/31/2018 23:00 224.52 0.00 57.8 -- 55.3 0.0
08/31/2018 22:00 224.53 0.00 57.5 -- 56.8 0.0
08/31/2018 21:00 224.53 0.00 57.4 -- 59.8 0.0
08/31/2018 20:00 224.53 0.00 57.9 -- 64.1 0.0
08/31/2018 19:00 224.53 0.00 57.5 -- 67.6 0.3
08/31/2018 18:00 224.53 0.00 57.5 -- 67.3 0.3
08/31/2018 17:00 224.53 0.00 57.5 -- 71.7 0.8
08/31/2018 16:00 224.53 0.00 57.4 -- 71.1 0.8
08/31/2018 15:00 224.53 0.00 57.4 -- 71.9 1.0
08/31/2018 14:00 224.53 0.00 57.4 -- 70.8 0.5
08/31/2018 13:00 224.53 0.00 57.6 -- 70.4 0.8
08/31/2018 12:00 224.54 0.00 57.6 -- 68.9 1.0
08/31/2018 11:00 224.54 0.00 57.7 -- 67.2 1.0
08/31/2018 10:00 224.53 0.00 57.2 -- 65.3 1.0
08/31/2018 09:00 224.53 0.00 57.4 -- 62.5 1.0
08/31/2018 08:00 224.53 0.00 57.5 -- 61.2 1.0
08/31/2018 07:00 224.54 0.00 57.6 -- 60.9 1.0
08/31/2018 06:00 224.54 0.00 57.5 -- 59.6 1.0
08/31/2018 05:00 224.54 0.00 57.4 -- 58.6 1.0
08/31/2018 04:00 224.54 0.00 57.9 -- 61.1 1.0
08/31/2018 03:00 224.54 0.00 57.7 -- 61.7 1.0
08/31/2018 02:00 224.54 0.00 57.7 -- 64.1 1.0
08/31/2018 01:00 224.54 0.00 57.5 -- 64.8 1.0
08/31/2018 00:00 224.55 0.00 57.3 0.00 61.7 1.0
08/30/2018 23:00 224.55 0.00 58.1 -- 63.4 1.0
08/30/2018 22:00 224.54 0.00 57.9 -- 64.8 1.0
08/30/2018 21:00 224.54 0.00 57.1 -- 68.6 1.0
08/30/2018 20:00 224.55 0.00 57.4 -- 73.4 1.0
08/30/2018 19:00 224.55 0.00 57.6 -- 77.5 1.0
08/30/2018 18:00 224.55 0.00 57.3 -- 79.3 1.3
08/30/2018 17:00 224.56 0.00 57.6 -- 82.0 1.3
08/30/2018 16:00 224.55 0.00 57.3 -- 80.8 1.3
08/30/2018 15:00 224.54 0.00 57.7 -- 81.3 1.0
08/30/2018 14:00 224.55 0.00 57.5 -- 80.5 1.0
08/30/2018 13:00 224.56 0.00 57.9 -- 80.1 1.5
08/30/2018 12:00 224.56 0.00 57.7 -- 81.3 2.0
08/30/2018 11:00 224.55 0.00 57.2 -- 81.4 1.8
08/30/2018 10:00 224.56 0.00 58.1 -- 78.5 1.5
08/30/2018 09:00 224.56 0.00 57.4 -- 74.4 2.0
08/30/2018 08:00 224.56 0.00 57.6 -- 72.9 2.0
08/30/2018 07:00 224.56 0.00 57.8 -- 71.2 1.3
08/30/2018 06:00 224.56 0.00 57.5 -- 72.5 1.5
08/30/2018 05:00 224.56 0.00 57.8 -- 71.3 2.0
08/30/2018 04:00 224.56 0.00 57.5 -- 74.5 1.3
08/30/2018 03:00 224.56 0.00 57.6 -- 74.5 2.0
08/30/2018 02:00 224.56 0.00 57.7 -- 72.6 1.8
08/30/2018 01:00 224.56 0.00 57.7 -- 73.8 1.8
08/30/2018 00:00 224.56 0.00 57.5 0.00 74.7 2.0
08/29/2018 23:00 224.56 0.00 57.9 -- 80.6 2.0
08/29/2018 22:00 224.57 0.00 57.0 -- 77.8 2.0
08/29/2018 21:00 224.57 0.00 58.2 -- 78.8 2.0
08/29/2018 20:00 224.56 0.00 57.5 -- 82.3 2.0
08/29/2018 19:00 224.57 0.00 57.7 -- 88.9 2.0
08/29/2018 18:00 224.56 0.00 57.4 -- 90.8 2.0
08/29/2018 17:00 224.57 0.00 57.5 -- 90.9 2.0
08/29/2018 16:00 224.57 0.00 57.5 -- 90.0 2.0
08/29/2018 15:00 224.57 0.00 57.5 -- 91.9 2.0
08/29/2018 14:00 224.57 0.00 57.3 -- 91.8 2.0
08/29/2018 13:00 224.57 0.00 57.2 -- 89.6 2.0
08/29/2018 12:00 224.57 0.00 57.9 -- 87.1 2.0
08/29/2018 11:00 224.57 0.00 57.6 -- 82.9 2.0
08/29/2018 10:00 224.57 0.00 57.2 -- 79.5 2.0
08/29/2018 09:00 224.57 0.00 57.0 -- 73.4 2.0
08/29/2018 08:00 224.57 0.00 57.6 -- 70.3 2.0
08/29/2018 07:00 224.57 0.00 57.4 -- 69.6 2.0
08/29/2018 06:00 224.57 0.00 57.3 -- 70.8 2.0
08/29/2018 05:00 224.57 0.00 57.6 -- 71.8 2.0
08/29/2018 04:00 224.57 0.00 57.3 -- 72.7 2.0
08/29/2018 03:00 224.57 0.00 57.3 -- 72.8 2.0
08/29/2018 02:00 224.57 0.00 57.4 -- 74.2 2.0
08/29/2018 01:00 224.57 0.00 57.8 -- 75.9 2.5
08/29/2018 00:00 224.58 0.00 56.7 0.00 78.9 2.0
08/28/2018 23:00 224.57 0.00 57.6 -- 77.8 2.0
08/28/2018 22:00 224.58 0.00 57.5 -- 78.6 2.3
08/28/2018 21:00 224.57 0.00 57.3 -- 79.2 2.0
08/28/2018 20:00 224.58 0.00 56.9 -- 81.6 2.0
08/28/2018 19:00 224.58 0.00 57.5 -- 84.4 2.3
08/28/2018 18:00 224.59 0.00 57.5 -- 89.4 2.5
08/28/2018 17:00 224.57 0.00 56.8 -- 92.4 2.0
08/28/2018 16:00 224.58 0.00 57.3 -- 90.8 2.8
08/28/2018 15:00 224.57 0.00 57.2 -- 91.9 2.3
08/28/2018 14:00 224.59 0.00 57.2 -- 89.2 2.5
08/28/2018 13:00 224.59 0.00 57.5 -- 88.4 2.8
08/28/2018 12:00 224.59 0.00 57.2 -- 85.7 2.8
08/28/2018 11:00 224.58 0.00 57.6 -- 84.3 2.5
08/28/2018 10:00 224.58 0.00 56.9 -- 79.6 3.0
08/28/2018 09:00 224.58 0.00 57.0 -- 73.5 2.8
08/28/2018 08:00 224.59 0.00 57.5 -- 69.3 3.0
08/28/2018 07:00 224.59 0.00 57.4 -- 68.6 2.5
08/28/2018 06:00 224.58 0.00 57.1 -- 68.7 2.8
08/28/2018 05:00 224.59 0.00 57.0 -- 68.3 3.0
08/28/2018 04:00 224.59 0.00 57.3 -- 68.3 3.0
08/28/2018 03:00 224.58 0.00 57.3 -- 69.5 3.0
08/28/2018 02:00 224.59 0.00 57.1 -- 69.8 3.0
08/28/2018 01:00 224.59 0.00 57.1 -- 69.6 3.0
08/28/2018 00:00 224.59 0.00 57.3 0.00 69.8 3.0
08/27/2018 23:00 224.59 0.00 57.1 -- 70.5 3.0
08/27/2018 22:00 224.59 0.00 57.1 -- 71.8 3.0
08/27/2018 21:00 224.59 0.00 57.0 -- 74.2 3.0
08/27/2018 20:00 224.59 0.00 56.9 -- 77.5 3.0
08/27/2018 19:00 224.59 0.00 56.9 -- 83.3 3.0
08/27/2018 18:00 224.59 0.00 57.6 -- 86.4 3.0
08/27/2018 17:00 224.59 0.00 56.4 -- 86.4 3.0
08/27/2018 16:00 224.60 0.00 57.6 -- 85.9 3.8
08/27/2018 15:00 224.59 0.00 57.4 -- 85.9 3.0
08/27/2018 14:00 224.59 0.00 57.1 -- 85.9 3.0
08/27/2018 13:00 224.60 0.00 57.5 -- 84.8 3.3
08/27/2018 12:00 224.60 0.00 57.6 -- 80.9 3.3
08/27/2018 11:00 224.59 0.00 57.4 -- 78.7 3.0
08/27/2018 10:00 224.59 0.00 57.6 -- 74.7 3.5
08/27/2018 09:00 224.60 0.00 57.5 -- 70.4 3.3
08/27/2018 08:00 224.60 0.00 57.4 -- 67.0 3.3
08/27/2018 07:00 224.59 0.00 57.7 -- 65.0 3.0
08/27/2018 06:00 224.60 0.00 57.7 -- 65.5 3.0
08/27/2018 05:00 224.60 0.00 57.1 -- 66.5 3.5
08/27/2018 04:00 224.60 0.00 57.7 -- 65.0 3.8
08/27/2018 03:00 224.60 0.00 57.5 -- 65.5 3.3
08/27/2018 02:00 224.60 0.00 57.6 -- 65.8 4.0
08/27/2018 01:00 224.60 0.00 57.5 -- 66.4 3.5
08/27/2018 00:00 224.60 0.00 57.9 0.00 67.4 4.0
08/26/2018 23:00 224.61 0.00 57.3 -- 67.9 4.0
08/26/2018 22:00 224.60 0.00 57.6 -- 69.3 4.0
08/26/2018 21:00 224.61 0.00 57.4 -- 70.9 4.0
08/26/2018 20:00 224.61 0.00 57.5 -- 74.1 4.0
08/26/2018 19:00 224.60 0.00 57.4 -- 75.9 4.0
08/26/2018 18:00 224.61 0.00 57.6 -- 79.6 4.0
08/26/2018 17:00 224.61 0.00 57.3 -- 81.6 4.0
08/26/2018 16:00 224.61 0.00 57.5 -- 81.5 4.0
08/26/2018 15:00 224.61 0.00 57.6 -- 80.0 4.0
08/26/2018 14:00 224.61 0.00 57.6 -- 78.6 4.0
08/26/2018 13:00 224.61 0.00 57.5 -- 76.8 4.0
08/26/2018 12:00 224.61 0.00 57.7 -- 74.1 4.0
08/26/2018 11:00 224.61 0.00 57.3 -- 70.0 4.0
08/26/2018 10:00 224.61 0.00 57.4 -- 65.3 4.0
08/26/2018 09:00 224.61 0.00 57.6 -- 61.2 4.0
08/26/2018 08:00 224.61 0.00 57.4 -- 56.6 4.0
08/26/2018 07:00 224.62 0.00 57.4 -- 56.9 5.0
08/26/2018 06:00 224.62 0.00 57.8 -- 58.1 4.3
08/26/2018 05:00 224.62 0.00 57.4 -- 58.7 4.5
08/26/2018 04:00 224.62 0.00 57.1 -- 59.4 4.5
08/26/2018 03:00 224.62 0.00 57.5 -- 59.7 5.0
08/26/2018 02:00 224.62 0.00 57.4 -- 60.7 5.0
08/26/2018 01:00 224.62 0.00 57.6 -- 62.3 5.0
08/26/2018 00:00 224.62 0.00 57.3 0.00 62.6 5.0
08/25/2018 23:00 224.62 0.00 57.2 -- 63.6 5.0
08/25/2018 22:00 224.62 0.00 57.4 -- 65.3 5.0
08/25/2018 21:00 224.62 0.00 57.5 -- 67.6 5.0
08/25/2018 20:00 224.63 0.00 57.7 -- 72.6 5.0
08/25/2018 19:00 224.62 0.00 57.2 -- 78.1 5.0
08/25/2018 18:00 224.63 0.00 57.3 -- 79.8 5.0
08/25/2018 17:00 224.63 0.00 57.3 -- 78.8 5.0
08/25/2018 16:00 224.63 0.00 57.6 -- 78.5 5.0
08/25/2018 15:00 224.63 0.00 56.9 -- 79.0 5.0
08/25/2018 14:00 224.63 0.00 57.5 -- 81.9 5.0
08/25/2018 13:00 224.63 0.00 57.2 -- 81.3 5.0
08/25/2018 12:00 224.64 0.00 57.3 -- 76.3 5.8
08/25/2018 11:00 224.64 0.00 57.2 -- 72.2 5.3
08/25/2018 10:00 224.63 0.00 57.3 -- 69.9 5.3
08/25/2018 09:00 224.64 0.00 57.6 -- 61.7 6.0
08/25/2018 08:00 224.64 0.00 56.9 -- 57.5 6.0
08/25/2018 07:00 224.64 0.00 56.4 -- 56.6 5.5
08/25/2018 06:00 224.64 0.00 57.9 -- 57.5 6.0
08/25/2018 05:00 224.64 0.00 57.4 -- 58.1 6.0
08/25/2018 04:00 224.64 0.00 57.1 -- 58.2 6.0
08/25/2018 03:00 224.64 0.00 57.4 -- 59.0 6.0
08/25/2018 02:00 224.64 0.00 57.2 -- 60.8 6.0
08/25/2018 01:00 224.64 0.00 57.2 -- 61.1 6.0
08/25/2018 00:00 224.64 0.00 57.4 0.00 62.2 6.0
08/24/2018 23:00 224.64 0.00 57.2 -- 63.5 6.0
08/24/2018 22:00 224.65 0.00 57.2 -- 65.1 6.3
08/24/2018 21:00 224.65 0.00 57.3 -- 67.6 6.0
08/24/2018 20:00 224.65 0.00 57.2 -- 71.9 6.0
08/24/2018 19:00 224.65 0.00 57.4 -- 78.4 6.3
08/24/2018 18:00 224.65 0.00 57.2 -- 83.1 6.3
08/24/2018 17:00 224.65 0.00 57.4 -- 82.7 6.3
08/24/2018 16:00 224.65 0.00 57.2 -- 83.0 7.0
08/24/2018 15:00 224.65 0.00 57.3 -- 82.2 6.5
08/24/2018 14:00 224.65 0.00 57.0 -- 80.0 6.8
08/24/2018 13:00 224.65 0.00 57.2 -- 79.4 7.0
08/24/2018 12:00 224.66 0.00 57.5 -- 75.1 7.0
08/24/2018 11:00 224.66 0.00 57.3 -- 70.9 7.0
08/24/2018 10:00 224.66 0.00 57.0 -- 65.1 7.0
08/24/2018 09:00 224.65 0.00 57.1 -- 57.4 7.0
08/24/2018 08:00 224.66 0.00 57.3 -- 54.2 7.0
08/24/2018 07:00 224.66 0.00 57.3 -- 53.1 7.0
08/24/2018 06:00 224.66 0.00 57.2 -- 53.3 7.0
08/24/2018 05:00 224.66 0.00 57.2 -- 54.1 7.0
08/24/2018 04:00 224.66 0.00 57.3 -- 54.7 7.0
08/24/2018 03:00 224.66 0.00 57.2 -- 53.1 7.8
08/24/2018 02:00 224.66 0.00 57.1 -- 53.0 7.8
08/24/2018 01:00 224.67 0.00 57.1 -- 53.5 8.0
08/24/2018 00:00 224.67 0.00 56.9 0.00 54.8 8.0
08/23/2018 23:00 224.67 0.00 57.5 -- 55.8 8.0
08/23/2018 22:00 224.67 0.00 57.2 -- 58.2 8.0
08/23/2018 21:00 224.67 0.00 57.3 -- 60.6 8.0
08/23/2018 20:00 224.67 0.00 57.5 -- 67.1 8.0
08/23/2018 19:00 224.68 0.00 57.4 -- 75.3 8.0
08/23/2018 18:00 224.67 0.00 57.1 -- 75.6 8.0
08/23/2018 17:00 224.67 0.00 56.9 -- 77.0 8.0
08/23/2018 16:00 224.69 0.01 56.7 -- 74.3 8.5
08/23/2018 15:00 224.67 0.00 56.7 -- 75.9 8.5
08/23/2018 14:00 224.67 0.00 56.7 -- 73.4 9.0
08/23/2018 13:00 224.66 0.00 57.0 -- 70.4 7.8
08/23/2018 12:00 224.69 0.00 56.8 -- 69.6 8.5
08/23/2018 11:00 224.69 0.00 57.0 -- 65.8 9.0
08/23/2018 10:00 224.69 0.00 57.0 -- 66.0 8.8
08/23/2018 09:00 224.68 0.00 57.2 -- 62.2 8.8
08/23/2018 08:00 224.68 -- 57.0 -- 59.9 8.8
08/23/2018 07:00 224.69 -- 56.8 -- 60.4 9.0
08/23/2018 06:00 224.70 0.00 57.2 -- 61.6 9.0
08/23/2018 05:00 224.69 0.00 57.1 -- 61.8 9.0
08/23/2018 04:00 224.69 0.00 56.8 -- 62.1 9.0
08/23/2018 03:00 224.69 0.00 56.7 -- 62.5 9.0
08/23/2018 02:00 224.69 0.00 57.1 -- 64.6 9.0
08/23/2018 01:00 224.70 0.00 57.0 -- 65.6 9.0
08/23/2018 00:00 224.69 0.00 57.1 -- 65.3 9.0
08/22/2018 23:00 224.69 0.00 56.9 -- 66.7 9.0
08/22/2018 22:00 224.69 0.00 56.8 -- 68.3 9.0
08/22/2018 21:00 224.70 0.00 56.7 -- 70.3 9.0
08/22/2018 20:00 224.69 0.00 57.0 -- 73.2 9.5
08/22/2018 19:00 224.69 0.00 56.8 -- 76.4 9.3
08/22/2018 18:00 224.69 0.00 56.9 -- 77.5 9.0
08/22/2018 17:00 224.70 0.00 56.7 -- 76.0 9.3
08/22/2018 16:00 224.69 0.00 56.8 -- 77.8 9.0
08/22/2018 15:00 224.69 0.00 56.6 -- 74.2 9.0
08/22/2018 14:00 224.69 0.00 56.6 -- 71.0 9.0
08/22/2018 13:00 224.69 0.01 57.0 -- 67.3 9.0
08/22/2018 12:00 224.69 0.34 57.0 -- 67.0 9.0
08/22/2018 11:00 224.66 0.18 57.0 -- 65.4 6.3
08/22/2018 10:00 224.64 0.05 56.5 -- 65.1 6.0
08/22/2018 09:00 224.64 0.00 57.0 -- 64.7 5.8
08/22/2018 08:00 224.64 0.00 57.0 -- 63.9 6.0
08/22/2018 07:00 224.64 0.00 56.7 -- 63.1 6.0
08/22/2018 06:00 224.64 0.00 56.9 -- 63.2 6.0
08/22/2018 05:00 224.64 0.00 57.1 -- 63.1 6.0
08/22/2018 04:00 224.64 0.00 56.5 -- 62.9 6.0
08/22/2018 03:00 224.64 0.00 56.8 -- 62.8 6.0
08/22/2018 02:00 224.64 0.00 57.1 -- 62.3 6.0
08/22/2018 01:00 224.64 0.00 57.1 -- 62.2 6.0
08/22/2018 00:00 224.64 0.00 56.5 0.58 62.0 6.0
08/21/2018 23:00 224.64 0.00 56.9 -- 61.3 6.0
08/21/2018 22:00 224.65 0.00 57.0 -- 63.2 6.0
08/21/2018 21:00 224.65 0.00 56.9 -- 62.8 6.0
08/21/2018 20:00 224.65 0.00 56.5 -- 66.1 6.0
08/21/2018 19:00 224.65 0.00 56.6 -- 70.0 6.0
08/21/2018 18:00 224.65 0.00 56.7 -- 69.3 6.3
08/21/2018 17:00 224.65 0.00 56.8 -- 69.4 6.3
08/21/2018 16:00 224.65 0.00 57.0 -- 71.8 6.8
08/21/2018 15:00 224.65 0.00 56.7 -- 71.8 6.5
08/21/2018 14:00 224.65 0.00 56.7 -- 72.8 7.0
08/21/2018 13:00 224.65 0.00 56.6 -- 72.0 7.0
08/21/2018 12:00 224.65 0.00 56.7 -- 71.1 7.0
08/21/2018 11:00 224.66 0.00 56.6 -- 70.2 7.0
08/21/2018 10:00 224.66 0.00 56.6 -- 65.2 7.0
08/21/2018 09:00 224.66 0.00 56.9 -- 59.1 7.0
08/21/2018 08:00 224.66 0.00 56.6 -- 53.7 7.0
08/21/2018 07:00 224.66 0.00 56.7 -- 52.7 7.0
08/21/2018 06:00 224.66 0.00 56.6 -- 53.3 7.0
08/21/2018 05:00 224.66 0.00 56.9 -- 53.7 7.3
08/21/2018 04:00 224.67 0.00 56.5 -- 54.2 7.5
08/21/2018 03:00 224.66 0.00 56.4 -- 55.3 7.0
08/21/2018 02:00 224.67 0.00 56.6 -- 56.1 8.0
08/21/2018 01:00 224.67 0.00 56.9 -- 56.9 7.8
08/21/2018 00:00 224.67 0.00 56.5 0.00 57.9 8.0
08/20/2018 23:00 224.67 0.00 56.6 -- 59.1 8.0
08/20/2018 22:00 224.67 0.00 56.5 -- 60.7 8.0
08/20/2018 21:00 224.68 0.00 56.4 -- 63.8 8.0
08/20/2018 20:00 224.67 0.00 56.9 -- 71.1 8.0
08/20/2018 19:00 224.68 0.00 56.5 -- 73.3 8.3
08/20/2018 18:00 224.68 0.00 56.5 -- 75.6 8.5
08/20/2018 17:00 224.68 0.00 56.6 -- 75.8 8.5
08/20/2018 16:00 224.69 0.00 57.1 -- 76.7 9.0
08/20/2018 15:00 224.68 0.00 56.4 -- 74.6 9.3
08/20/2018 14:00 224.69 0.00 56.3 -- 73.5 8.5
08/20/2018 13:00 224.69 0.00 56.6 -- 74.3 9.0
08/20/2018 12:00 224.69 0.00 56.5 -- 73.7 9.3
08/20/2018 11:00 224.69 0.00 56.4 -- 69.7 9.0
08/20/2018 10:00 224.70 0.00 56.3 -- 67.0 9.5
08/20/2018 09:00 224.70 0.00 56.6 -- 66.0 9.8
08/20/2018 08:00 224.70 0.00 56.3 -- 64.3 10.0
08/20/2018 07:00 224.70 0.00 56.5 -- 63.8 10.0
08/20/2018 06:00 224.70 0.00 56.5 -- 63.4 10.0
08/20/2018 05:00 224.70 0.00 56.4 -- 63.0 10.0
08/20/2018 04:00 224.70 0.00 56.5 -- 62.6 10.0
08/20/2018 03:00 224.71 0.00 56.4 -- 62.7 10.0
08/20/2018 02:00 224.71 0.00 56.6 -- 60.5 10.3
08/20/2018 01:00 224.71 0.00 56.3 -- 60.0 10.0
08/20/2018 00:00 224.71 0.00 56.2 0.00 60.2 10.3
08/19/2018 23:00 224.71 0.00 56.2 -- 60.0 11.0
08/19/2018 22:00 224.71 0.00 56.1 -- 60.9 11.0
08/19/2018 21:00 224.71 0.00 56.5 -- 63.3 11.0
08/19/2018 20:00 224.72 0.00 56.1 -- 68.8 11.0
08/19/2018 19:00 224.72 0.00 56.3 -- 73.7 11.5
08/19/2018 18:00 224.71 0.00 56.2 -- 70.9 11.3
08/19/2018 17:00 224.72 0.00 56.7 -- 74.0 11.8
08/19/2018 16:00 224.73 0.00 56.3 -- 76.7 12.0
08/19/2018 15:00 224.72 0.00 56.2 -- 75.5 12.0
08/19/2018 14:00 224.72 0.00 56.3 -- 74.7 11.5
08/19/2018 13:00 224.73 0.00 56.2 -- 73.2 12.3
08/19/2018 12:00 224.74 0.00 56.4 -- 71.8 12.5
08/19/2018 11:00 224.74 0.00 56.0 -- 69.7 12.8
08/19/2018 10:00 224.73 0.00 56.2 -- 67.2 12.5
08/19/2018 09:00 224.73 0.00 56.5 -- 63.6 13.0
08/19/2018 08:00 224.74 0.00 56.0 -- 60.6 12.8
08/19/2018 07:00 224.75 0.00 56.0 -- 59.9 13.5
08/19/2018 06:00 224.75 0.00 56.1 -- 60.2 14.0
08/19/2018 05:00 224.75 0.00 56.1 -- 61.6 14.0
08/19/2018 04:00 224.75 0.00 56.0 -- 63.0 14.0
08/19/2018 03:00 224.75 0.00 56.0 -- 64.4 14.0
08/19/2018 02:00 224.74 0.00 56.0 -- 64.6 13.8
08/19/2018 01:00 224.75 0.00 56.2 -- 64.3 14.0
08/19/2018 00:00 224.76 0.00 56.3 0.00 64.8 14.3
08/18/2018 23:00 224.76 0.00 56.0 -- 65.2 14.5
08/18/2018 22:00 224.75 0.01 56.3 -- 65.7 14.3
08/18/2018 21:00 224.76 0.12 56.0 -- 67.3 14.5
08/18/2018 20:00 224.75 0.04 56.1 -- 68.9 14.3
08/18/2018 19:00 224.75 0.00 56.4 -- 73.9 14.0
08/18/2018 18:00 224.75 0.00 56.0 -- 74.8 13.8
08/18/2018 17:00 224.75 0.00 56.2 -- 77.2 14.3
08/18/2018 16:00 224.76 0.00 56.6 -- 78.6 14.5
08/18/2018 15:00 224.76 0.00 56.4 -- 80.0 14.5
08/18/2018 14:00 224.76 0.01 56.4 -- 74.7 14.5
08/18/2018 13:00 224.76 0.01 57.1 -- 74.5 15.0
08/18/2018 12:00 224.76 0.00 56.9 -- 78.8 15.0
08/18/2018 11:00 224.76 0.00 56.7 -- 76.4 15.0
08/18/2018 10:00 224.76 0.00 56.9 -- 73.4 15.3
08/18/2018 09:00 224.77 0.00 57.0 -- 71.5 15.3
08/18/2018 08:00 224.76 0.00 56.6 -- 70.6 15.3
08/18/2018 07:00 224.77 0.00 56.7 -- 70.1 15.8
08/18/2018 06:00 224.77 0.00 56.7 -- 70.3 16.0
08/18/2018 05:00 224.77 0.00 57.0 -- 70.8 16.0
08/18/2018 04:00 224.78 0.04 56.7 -- 69.5 16.0
08/18/2018 03:00 224.77 0.01 56.8 -- 68.3 15.5
08/18/2018 02:00 224.77 0.00 56.8 -- 68.4 15.8
08/18/2018 01:00 224.78 0.06 56.7 -- 68.5 16.3
08/18/2018 00:00 224.77 0.10 56.4 0.30 68.9 15.8
08/17/2018 23:00 224.76 0.07 56.9 -- 68.8 15.5
08/17/2018 22:00 224.76 0.00 56.6 -- 68.8 15.0
08/17/2018 21:00 224.76 0.00 56.9 -- 69.9 15.0
08/17/2018 20:00 224.77 0.00 56.7 -- 71.6 15.5
08/17/2018 19:00 224.78 0.01 56.9 -- 71.2 16.0
08/17/2018 18:00 224.77 0.06 56.7 -- 70.9 15.8
08/17/2018 17:00 224.77 0.00 56.6 -- 78.1 16.0
08/17/2018 16:00 224.77 0.00 56.7 -- 76.8 16.0
08/17/2018 15:00 224.77 0.00 56.7 -- 80.0 16.5
08/17/2018 14:00 224.78 0.00 56.8 -- 78.7 16.0
08/17/2018 13:00 224.78 0.00 56.6 -- 76.0 17.0
08/17/2018 12:00 224.78 0.00 56.9 -- 75.5 17.0
08/17/2018 11:00 224.79 0.00 56.8 -- 73.6 17.3
08/17/2018 10:00 224.79 0.00 56.5 -- 71.1 17.0
08/17/2018 09:00 224.79 0.00 56.7 -- 64.9 18.0
08/17/2018 08:00 224.80 0.00 56.7 -- 60.7 18.0
08/17/2018 07:00 224.80 0.00 57.1 -- 60.4 18.0
08/17/2018 06:00 224.80 0.00 56.7 -- 60.4 18.5
08/17/2018 05:00 224.81 0.00 56.5 -- 61.4 19.0
08/17/2018 04:00 224.81 0.00 56.5 -- 61.2 19.0
08/17/2018 03:00 224.81 0.00 56.6 -- 62.4 19.0
08/17/2018 02:00 224.81 0.00 56.5 -- 63.9 19.8
08/17/2018 01:00 224.82 0.00 56.7 -- 64.2 20.0
08/17/2018 00:00 224.82 0.00 57.2 0.24 64.7 20.3
08/16/2018 23:00 224.82 0.00 56.3 -- 66.0 21.0
08/16/2018 22:00 224.83 0.00 57.3 -- 67.4 21.0
08/16/2018 21:00 224.83 0.00 56.8 -- 69.8 21.0
08/16/2018 20:00 224.83 0.00 56.8 -- 75.5 21.5
08/16/2018 19:00 224.83 0.00 56.7 -- 83.2 21.8
08/16/2018 18:00 224.84 0.00 56.5 -- 83.6 22.5
08/16/2018 17:00 224.83 0.00 56.3 -- 84.4 21.8
08/16/2018 16:00 224.84 0.00 56.7 -- 84.1 23.0
08/16/2018 15:00 224.85 0.00 57.0 -- 84.1 23.3
08/16/2018 14:00 224.85 0.00 57.0 -- 84.9 23.8
08/16/2018 13:00 224.85 0.00 56.8 -- 80.9 24.5
08/16/2018 12:00 224.86 0.00 57.0 -- 81.4 24.3
08/16/2018 11:00 224.86 0.00 56.8 -- 80.5 25.0
08/16/2018 10:00 224.87 0.00 56.7 -- 76.5 25.0
08/16/2018 09:00 224.87 0.00 56.6 -- 72.6 25.0
08/16/2018 08:00 224.87 0.00 56.8 -- 68.5 26.0
08/16/2018 07:00 224.87 0.00 56.7 -- 68.3 26.0
08/16/2018 06:00 224.88 0.00 56.8 -- 67.8 26.3
08/16/2018 05:00 224.87 0.00 56.5 -- 69.2 26.5
08/16/2018 04:00 224.89 0.00 56.7 -- 70.0 27.3
08/16/2018 03:00 224.89 0.00 56.6 -- 70.0 26.8
08/16/2018 02:00 224.88 0.00 56.5 -- 70.9 26.5
08/16/2018 01:00 224.89 0.00 56.6 -- 71.0 27.8
08/16/2018 00:00 224.89 0.00 56.5 0.00 71.1 28.0
08/15/2018 23:00 224.89 0.00 56.8 -- 72.1 28.0
08/15/2018 22:00 224.90 0.00 56.5 -- 72.7 28.5
08/15/2018 21:00 224.90 0.00 56.5 -- 73.6 29.0
08/15/2018 20:00 224.90 0.00 56.9 -- 76.5 29.0
08/15/2018 19:00 224.90 0.00 56.5 -- 85.4 29.0
08/15/2018 18:00 224.90 0.00 56.7 -- 86.2 29.3
08/15/2018 17:00 224.90 0.00 56.7 -- 84.7 29.3
08/15/2018 16:00 224.90 0.00 56.5 -- 85.5 29.0
08/15/2018 15:00 224.90 0.00 56.7 -- 83.1 29.0
08/15/2018 14:00 224.90 0.00 56.4 -- 82.7 29.3
08/15/2018 13:00 224.90 0.00 56.6 -- 80.1 29.0
08/15/2018 12:00 224.91 0.00 56.7 -- 75.1 29.3
08/15/2018 11:00 224.91 0.00 56.7 -- 73.2 29.8
08/15/2018 10:00 224.91 0.00 56.3 -- 70.9 29.0
08/15/2018 09:00 224.90 0.00 56.8 -- 69.5 29.0
08/15/2018 08:00 224.91 0.01 56.7 -- 68.5 29.0
08/15/2018 07:00 224.90 0.00 56.4 -- 68.1 29.0
08/15/2018 06:00 224.90 0.00 56.4 -- 67.9 29.0
08/15/2018 05:00 224.90 0.00 56.8 -- 68.1 29.0
08/15/2018 04:00 224.90 0.00 56.4 -- 68.1 28.5
08/15/2018 03:00 224.89 0.00 56.3 -- 68.1 28.0
08/15/2018 02:00 224.89 0.00 57.1 -- 67.9 27.8
08/15/2018 01:00 224.89 0.00 56.2 -- 68.3 28.0
08/15/2018 00:00 224.89 0.00 56.5 0.01 68.3 27.0
08/14/2018 23:00 224.88 0.00 56.4 -- 67.9 26.8
08/14/2018 22:00 224.88 0.00 56.8 -- 68.0 26.8
08/14/2018 21:00 224.87 0.00 56.9 -- 69.1 25.0
08/14/2018 20:00 224.87 0.00 56.7 -- 69.8 24.5
08/14/2018 19:00 224.86 0.00 56.4 -- 72.6 24.0
08/14/2018 18:00 224.86 0.03 56.4 -- 69.8 23.3
08/14/2018 17:00 224.84 1.16 56.7 -- 68.3 16.5
08/14/2018 16:00 224.72 0.00 56.4 -- 78.4 11.8
08/14/2018 15:00 224.72 0.00 56.4 -- 82.6 11.3
08/14/2018 14:00 224.72 0.00 56.8 -- 78.9 11.5
08/14/2018 13:00 224.73 0.00 56.4 -- 75.9 12.0
08/14/2018 12:00 224.73 0.00 56.5 -- 71.9 11.8
08/14/2018 11:00 224.72 0.00 56.4 -- 69.4 12.0
08/14/2018 10:00 224.73 0.00 56.6 -- 67.7 12.0
08/14/2018 09:00 224.73 0.01 56.6 -- 67.1 12.0
08/14/2018 08:00 224.72 0.00 56.5 -- 66.7 12.0
08/14/2018 07:00 224.73 0.00 56.6 -- 66.7 12.0
08/14/2018 06:00 224.73 0.01 56.3 -- 66.6 12.0
08/14/2018 05:00 224.73 0.01 56.4 -- 66.5 12.0
08/14/2018 04:00 224.72 0.04 56.7 -- 66.4 12.0
08/14/2018 03:00 224.73 0.01 56.4 -- 66.5 11.8
08/14/2018 02:00 224.72 0.01 56.4 -- 66.7 11.8
08/14/2018 01:00 224.72 0.00 56.5 -- 67.1 11.5
08/14/2018 00:00 224.72 0.01 56.4 1.28 67.1 11.3
08/13/2018 23:00 224.72 0.00 56.7 -- 67.3 11.8
08/13/2018 22:00 224.72 0.00 56.4 -- 68.2 11.3
08/13/2018 21:00 224.72 0.00 56.2 -- 69.1 11.0
08/13/2018 20:00 224.72 0.00 56.5 -- 69.8 11.0
08/13/2018 19:00 224.72 0.00 56.6 -- 70.5 11.0
08/13/2018 18:00 224.71 0.00 56.3 -- 71.5 11.0
08/13/2018 17:00 224.71 0.00 56.2 -- 72.0 11.0
08/13/2018 16:00 224.71 0.00 56.7 -- 73.5 10.8
08/13/2018 15:00 224.71 0.00 56.2 -- 71.9 11.0
08/13/2018 14:00 224.71 0.00 56.4 -- 70.5 11.0
08/13/2018 13:00 224.71 0.00 56.4 -- 68.6 11.0
08/13/2018 12:00 224.71 0.00 56.2 -- 67.3 11.0
08/13/2018 11:00 224.71 0.00 56.4 -- 67.0 11.0
08/13/2018 10:00 224.71 0.00 56.2 -- 66.9 10.5
08/13/2018 09:00 224.71 0.00 56.3 -- 66.8 10.0
08/13/2018 08:00 224.71 0.00 56.3 -- 66.4 10.8
08/13/2018 07:00 224.71 0.00 56.2 -- 65.8 10.8
08/13/2018 06:00 224.71 0.00 56.1 -- 65.8 11.0
08/13/2018 05:00 224.71 0.00 56.4 -- 66.1 10.8
08/13/2018 04:00 224.71 0.00 56.4 -- 66.3 11.0
08/13/2018 03:00 224.71 0.00 56.2 -- 66.5 10.3
08/13/2018 02:00 224.71 0.00 56.3 -- 66.6 10.8
08/13/2018 01:00 224.71 0.00 56.3 -- 66.6 10.0
08/13/2018 00:00 224.71 0.00 56.2 0.01 66.7 10.0
08/12/2018 23:00 224.71 0.00 56.2 -- 66.9 10.5
08/12/2018 22:00 224.71 0.00 56.4 -- 67.2 10.3
08/12/2018 21:00 224.71 0.00 56.1 -- 67.6 10.0
08/12/2018 20:00 224.71 0.00 56.3 -- 68.3 10.3
08/12/2018 19:00 224.71 0.00 56.4 -- 68.9 10.0
08/12/2018 18:00 224.70 0.00 56.1 -- 68.9 10.0
08/12/2018 17:00 224.71 0.00 56.2 -- 69.6 10.0
08/12/2018 16:00 224.71 0.00 56.4 -- 69.7 10.0
08/12/2018 15:00 224.70 0.00 56.3 -- 68.4 10.0
08/12/2018 14:00 224.70 0.00 56.2 -- 67.4 10.0
08/12/2018 13:00 224.70 0.00 56.2 -- 67.0 10.0
08/12/2018 12:00 224.70 0.00 56.1 -- 66.8 10.0
08/12/2018 11:00 224.70 0.01 56.2 -- 66.1 9.5
08/12/2018 10:00 224.70 0.00 56.1 -- 65.1 9.5
08/12/2018 09:00 224.70 0.01 56.3 -- 64.7 9.8
08/12/2018 08:00 224.69 0.05 56.1 -- 64.5 9.0
08/12/2018 07:00 224.68 0.05 56.2 -- 64.5 9.0
08/12/2018 06:00 224.68 0.02 56.0 -- 64.6 8.3
08/12/2018 05:00 224.68 0.06 56.1 -- 64.4 8.0
08/12/2018 04:00 224.67 0.14 56.3 -- 64.6 7.5
08/12/2018 03:00 224.66 0.08 56.2 -- 65.0 7.3
08/12/2018 02:00 224.65 0.14 56.0 -- 65.3 6.3
08/12/2018 01:00 224.68 0.05 56.1 -- 65.3 8.3
08/12/2018 00:00 224.68 0.01 56.3 0.61 66.0 8.0
08/11/2018 23:00 224.67 0.11 56.2 -- 66.2 7.5
08/11/2018 22:00 224.66 0.01 56.0 -- 66.3 7.3
08/11/2018 21:00 224.65 0.01 56.1 -- 66.6 6.3
08/11/2018 20:00 224.64 0.00 56.3 -- 67.0 5.5
08/11/2018 19:00 224.64 0.00 56.1 -- 67.2 6.0
08/11/2018 18:00 224.64 0.04 56.0 -- 66.3 5.5
08/11/2018 17:00 224.62 0.04 56.2 -- 65.8 5.0
08/11/2018 16:00 224.63 0.03 56.1 -- 66.0 5.0
08/11/2018 15:00 224.63 0.04 56.1 -- 66.5 5.0
08/11/2018 14:00 224.63 0.01 56.1 -- 67.7 5.0
08/11/2018 13:00 224.63 0.00 56.0 -- 68.0 5.0
08/11/2018 12:00 224.62 0.00 56.0 -- 68.7 5.0
08/11/2018 11:00 224.62 0.00 56.3 -- 68.8 5.0
08/11/2018 10:00 224.61 0.00 56.1 -- 67.4 4.0
08/11/2018 09:00 224.61 0.00 56.1 -- 66.0 4.0
08/11/2018 08:00 224.61 0.00 56.1 -- 65.3 4.0
08/11/2018 07:00 224.61 0.00 55.8 -- 62.1 4.0
08/11/2018 06:00 224.61 0.00 56.2 -- 61.3 4.0
08/11/2018 05:00 224.62 0.00 56.3 -- 61.0 4.0
08/11/2018 04:00 224.62 0.00 56.0 -- 60.0 4.3
08/11/2018 03:00 224.62 0.00 55.9 -- 60.1 5.0
08/11/2018 02:00 224.62 0.00 55.9 -- 59.9 4.8
08/11/2018 01:00 224.62 0.00 56.1 -- 60.8 5.0
08/11/2018 00:00 224.63 0.00 56.0 0.30 61.0 5.0
08/10/2018 23:00 224.63 0.00 56.1 -- 61.5 5.0
08/10/2018 22:00 224.62 0.00 55.9 -- 63.8 5.0
08/10/2018 21:00 224.62 0.00 55.8 -- 67.1 5.0
08/10/2018 20:00 224.63 0.00 55.9 -- 72.7 5.0
08/10/2018 19:00 224.63 0.00 55.8 -- 80.3 5.0
08/10/2018 18:00 224.63 0.00 56.1 -- 81.4 5.0
08/10/2018 17:00 224.63 0.00 56.0 -- 82.3 5.0
08/10/2018 16:00 224.63 0.00 55.9 -- 81.2 5.0
08/10/2018 15:00 224.63 0.00 55.7 -- 81.1 5.0
08/10/2018 14:00 224.63 0.00 55.9 -- 80.2 5.8
08/10/2018 13:00 224.63 0.00 55.8 -- 78.8 5.0
08/10/2018 12:00 224.63 0.00 55.8 -- 77.9 5.5
08/10/2018 11:00 224.64 0.00 55.8 -- 76.8 6.0
08/10/2018 10:00 224.64 0.00 55.9 -- 75.0 5.8
08/10/2018 09:00 224.64 0.00 56.1 -- 69.6 6.5
08/10/2018 08:00 224.64 0.00 55.9 -- 65.0 5.5
08/10/2018 07:00 224.63 0.00 55.5 -- 65.0 5.8
08/10/2018 06:00 224.64 0.00 55.9 -- 66.2 6.8
08/10/2018 05:00 224.65 0.00 55.9 -- 65.5 6.5
08/10/2018 04:00 224.65 0.00 55.8 -- 66.4 7.0
08/10/2018 03:00 224.65 0.00 56.1 -- 65.7 7.0
08/10/2018 02:00 224.66 0.00 55.8 -- 66.0 7.0
08/10/2018 01:00 224.66 0.00 55.8 -- 68.0 7.0
08/10/2018 00:00 224.66 0.00 55.8 0.00 71.1 7.0
08/09/2018 23:00 224.66 0.00 55.8 -- 70.6 7.0
08/09/2018 22:00 224.66 0.00 55.8 -- 71.7 7.0
08/09/2018 21:00 224.66 0.00 55.7 -- 73.6 7.0
08/09/2018 20:00 224.66 0.00 55.8 -- 78.7 7.0
08/09/2018 19:00 224.66 0.00 55.8 -- 85.4 7.8
08/09/2018 18:00 224.66 0.00 55.9 -- 86.4 7.8
08/09/2018 17:00 224.67 0.00 56.2 -- 85.8 8.0
08/09/2018 16:00 224.67 0.00 56.0 -- 84.6 8.0
08/09/2018 15:00 224.67 0.00 56.0 -- 84.3 8.0
08/09/2018 14:00 224.67 0.00 56.2 -- 84.2 8.0
08/09/2018 13:00 224.68 0.00 56.0 -- 82.5 8.0
08/09/2018 12:00 224.68 0.00 55.6 -- 79.8 8.0
08/09/2018 11:00 224.68 0.00 55.7 -- 74.9 8.0
08/09/2018 10:00 224.67 0.00 56.0 -- 73.3 8.3
08/09/2018 09:00 224.68 0.00 55.6 -- 71.3 8.3
08/09/2018 08:00 224.68 0.00 55.9 -- 70.8 8.3
08/09/2018 07:00 224.68 0.00 55.7 -- 70.9 8.8
08/09/2018 06:00 224.68 0.00 55.6 -- 71.1 9.0
08/09/2018 05:00 224.68 0.00 55.7 -- 70.9 8.5
08/09/2018 04:00 224.68 0.01 55.7 -- 71.1 9.0
08/09/2018 03:00 224.69 0.00 55.7 -- 71.3 9.0
08/09/2018 02:00 224.69 0.00 55.9 -- 71.3 9.0
08/09/2018 01:00 224.69 0.00 55.5 -- 71.5 9.0
08/09/2018 00:00 224.69 0.00 56.2 0.01 71.8 9.0
08/08/2018 23:00 224.70 0.23 55.8 -- 72.4 9.8
08/08/2018 22:00 224.69 0.11 55.5 -- 72.7 9.3
08/08/2018 21:00 224.70 0.00 56.0 -- 75.3 9.3
08/08/2018 20:00 224.70 0.00 56.1 -- 75.7 9.8
08/08/2018 19:00 224.70 0.00 55.8 -- 78.7 10.0
08/08/2018 18:00 224.70 0.00 56.1 -- 82.8 10.0
08/08/2018 17:00 224.69 0.00 55.9 -- 85.1 8.3
08/08/2018 16:00 224.68 0.00 55.8 -- 85.2 8.0
08/08/2018 15:00 224.68 0.00 55.9 -- 85.6 8.0
08/08/2018 14:00 224.68 0.00 56.1 -- 84.2 8.3
08/08/2018 13:00 224.68 0.00 55.8 -- 83.4 8.3
08/08/2018 12:00 224.69 0.00 55.9 -- 80.3 9.0
08/08/2018 11:00 224.69 0.00 55.9 -- 79.8 9.0
08/08/2018 10:00 224.69 0.01 56.1 -- 77.8 9.0
08/08/2018 09:00 224.69 0.00 55.6 -- 72.1 9.0
08/08/2018 08:00 224.69 0.00 55.5 -- 69.0 9.0
08/08/2018 07:00 224.69 0.00 56.1 -- 68.4 9.8
08/08/2018 06:00 224.70 0.00 55.8 -- 68.9 9.8
08/08/2018 05:00 224.70 0.00 55.6 -- 70.0 10.0
08/08/2018 04:00 224.70 0.00 55.4 -- 70.9 10.0
08/08/2018 03:00 224.70 0.00 55.8 -- 71.1 10.0
08/08/2018 02:00 224.71 0.00 56.1 -- 71.3 10.3
08/08/2018 01:00 224.71 0.00 55.8 -- 71.9 10.5
08/08/2018 00:00 224.71 0.00 55.3 0.35 72.0 11.0
08/07/2018 23:00 224.71 0.00 56.0 -- 72.2 11.0
08/07/2018 22:00 224.72 0.00 55.6 -- 72.5 11.0
08/07/2018 21:00 224.72 0.04 55.9 -- 72.5 11.0
08/07/2018 20:00 224.72 0.00 55.8 -- 80.6 12.0
08/07/2018 19:00 224.72 0.00 55.5 -- 82.4 12.0
08/07/2018 18:00 224.72 0.00 55.8 -- 85.7 11.3
08/07/2018 17:00 224.73 0.00 55.4 -- 85.1 12.5
08/07/2018 16:00 224.73 0.00 55.8 -- 91.7 12.0
08/07/2018 15:00 224.72 0.00 55.7 -- 92.6 12.0
08/07/2018 14:00 224.73 0.00 55.6 -- 91.1 12.0
08/07/2018 13:00 224.73 0.00 55.6 -- 90.2 12.3
08/07/2018 12:00 224.74 0.00 55.7 -- 88.3 13.0
08/07/2018 11:00 224.73 0.00 55.6 -- 85.5 12.5
08/07/2018 10:00 224.74 0.00 55.5 -- 82.2 13.0
08/07/2018 09:00 224.75 0.00 55.4 -- 77.1 13.8
08/07/2018 08:00 224.75 0.00 55.5 -- 73.8 13.5
08/07/2018 07:00 224.75 0.00 55.9 -- 72.4 14.0
08/07/2018 06:00 224.75 0.00 55.7 -- 72.8 14.0
08/07/2018 05:00 224.75 0.00 55.5 -- 71.6 14.0
08/07/2018 04:00 224.76 0.00 55.4 -- 71.3 14.5
08/07/2018 03:00 224.76 0.00 55.7 -- 72.2 15.0
08/07/2018 02:00 224.76 0.00 55.6 -- 72.4 15.0
08/07/2018 01:00 224.76 0.00 55.4 -- 72.7 15.0
08/07/2018 00:00 224.77 0.00 55.3 0.04 73.2 15.0
08/06/2018 23:00 224.77 0.00 55.5 -- 74.7 15.8
08/06/2018 22:00 224.77 0.00 55.8 -- 75.5 16.0
08/06/2018 21:00 224.77 0.00 55.2 -- 78.1 16.0
08/06/2018 20:00 224.78 0.00 55.3 -- 83.3 16.8
08/06/2018 19:00 224.78 0.00 56.0 -- 90.0 17.0
08/06/2018 18:00 224.78 0.00 55.7 -- 91.8 17.0
08/06/2018 17:00 224.79 0.00 55.5 -- 92.1 17.5
08/06/2018 16:00 224.79 0.00 55.4 -- 93.3 18.0
08/06/2018 15:00 224.79 0.00 55.5 -- 91.3 18.0
08/06/2018 14:00 224.80 0.00 55.4 -- 91.8 18.0
08/06/2018 13:00 224.80 0.00 55.4 -- 87.6 18.5
08/06/2018 12:00 224.80 0.00 55.3 -- 85.8 19.3
08/06/2018 11:00 224.80 0.00 55.4 -- 81.5 19.3
08/06/2018 10:00 224.81 0.00 55.4 -- 77.6 20.0
08/06/2018 09:00 224.81 0.00 55.2 -- 69.9 20.0
08/06/2018 08:00 224.82 0.00 55.3 -- 66.8 22.0
08/06/2018 07:00 224.84 0.00 55.3 -- 65.9 22.0
08/06/2018 06:00 224.84 0.00 55.5 -- 66.8 22.3
08/06/2018 05:00 224.84 0.00 55.5 -- 67.6 23.0
08/06/2018 04:00 224.84 0.00 55.0 -- 68.8 23.0
08/06/2018 03:00 224.85 0.00 55.3 -- 70.3 23.0
08/06/2018 02:00 224.86 0.00 55.6 -- 70.9 24.0
08/06/2018 01:00 224.86 0.00 55.4 -- 71.4 24.0
08/06/2018 00:00 224.86 0.00 55.0 0.00 71.8 24.0
08/05/2018 23:00 224.86 0.00 55.3 -- 72.9 24.5
08/05/2018 22:00 224.86 0.00 55.6 -- 74.0 25.0
08/05/2018 21:00 224.87 0.00 55.0 -- 75.8 25.5
08/05/2018 20:00 224.87 0.00 55.1 -- 79.3 25.5
08/05/2018 19:00 224.87 0.00 55.6 -- 87.8 26.0
08/05/2018 18:00 224.87 0.00 55.4 -- 88.3 26.0
08/05/2018 17:00 224.88 0.00 55.5 -- 89.8 26.0
08/05/2018 16:00 224.87 0.00 55.0 -- 87.6 26.8
08/05/2018 15:00 224.88 0.00 55.2 -- 88.5 27.0
08/05/2018 14:00 224.88 0.00 55.2 -- 88.9 27.0
08/05/2018 13:00 224.88 0.00 55.3 -- 82.7 27.0
08/05/2018 12:00 224.89 0.00 55.2 -- 84.9 27.0
08/05/2018 11:00 224.89 0.00 54.9 -- 81.1 27.8
08/05/2018 10:00 224.89 0.00 55.3 -- 75.6 28.0
08/05/2018 09:00 224.89 0.00 55.2 -- 69.2 28.0
08/05/2018 08:00 224.89 0.00 55.2 -- 66.9 28.0
08/05/2018 07:00 224.90 0.00 55.1 -- 66.6 28.5
08/05/2018 06:00 224.90 0.00 55.2 -- 67.7 29.0
08/05/2018 05:00 224.90 0.00 55.1 -- 68.1 28.8
08/05/2018 04:00 224.90 0.00 55.3 -- 69.3 29.0
08/05/2018 03:00 224.90 0.00 55.2 -- 70.0 29.0
08/05/2018 02:00 224.90 0.00 55.2 -- 70.1 29.0
08/05/2018 01:00 224.90 0.00 55.1 -- 71.3 28.8
08/05/2018 00:00 224.90 0.00 55.3 0.00 70.5 29.0
08/04/2018 23:00 224.90 0.00 54.8 -- 70.2 28.8
08/04/2018 22:00 224.90 0.00 55.4 -- 71.0 28.0
08/04/2018 21:00 224.89 0.00 55.1 -- 72.8 28.5
08/04/2018 20:00 224.89 0.00 55.1 -- 75.2 28.0
08/04/2018 19:00 224.89 0.01 55.1 -- 77.7 28.0
08/04/2018 18:00 224.89 0.00 55.0 -- 75.7 27.3
08/04/2018 17:00 224.89 0.00 55.2 -- 76.9 27.0
08/04/2018 16:00 224.89 0.00 54.8 -- 74.0 27.3
08/04/2018 15:00 224.89 0.00 55.5 -- 73.4 26.8
08/04/2018 14:00 224.88 0.00 55.3 -- 73.5 26.3
08/04/2018 13:00 224.88 0.34 54.8 -- 71.9 24.8
08/04/2018 12:00 224.84 0.11 54.8 -- 73.4 22.0
08/04/2018 11:00 224.83 0.00 55.5 -- 74.4 21.5
08/04/2018 10:00 224.83 0.00 55.2 -- 75.0 21.0
08/04/2018 09:00 224.82 0.00 55.2 -- 71.6 21.0
08/04/2018 08:00 224.83 0.00 54.9 -- 69.9 20.8
08/04/2018 07:00 224.82 0.00 54.9 -- 68.5 20.3
08/04/2018 06:00 224.82 0.00 55.2 -- 68.1 20.0
08/04/2018 05:00 224.81 0.00 55.0 -- 68.3 19.8
08/04/2018 04:00 224.81 0.00 55.1 -- 68.4 20.0
08/04/2018 03:00 224.81 0.00 54.8 -- 68.4 19.0
08/04/2018 02:00 224.81 0.00 55.0 -- 68.5 19.0
08/04/2018 01:00 224.80 0.00 54.4 -- 68.3 18.0
08/04/2018 00:00 224.79 0.00 55.0 0.46 68.7 17.3
08/03/2018 23:00 224.78 0.00 55.0 -- 69.2 17.3
08/03/2018 22:00 224.79 0.01 55.2 -- 69.8 16.8
08/03/2018 21:00 224.75 0.13 54.9 -- 70.2 14.0
08/03/2018 20:00 224.75 0.44 55.0 -- 70.5 14.0
08/03/2018 19:00 224.71 1.11 55.3 -- 70.8 8.5
08/03/2018 18:00 224.65 0.04 54.9 -- 76.4 5.3
08/03/2018 17:00 224.63 0.00 55.1 -- 90.5 5.0
08/03/2018 16:00 224.63 0.00 54.9 -- 85.7 5.0
08/03/2018 15:00 224.63 0.08 55.0 -- 76.5 5.0
08/03/2018 14:00 224.63 0.00 55.3 -- 86.1 5.0
08/03/2018 13:00 224.63 0.00 55.3 -- 85.7 5.0
08/03/2018 12:00 224.63 0.00 54.8 -- 83.3 5.0
08/03/2018 11:00 224.63 0.00 55.2 -- 82.1 5.0
08/03/2018 10:00 224.63 0.00 55.2 -- 78.2 5.0
08/03/2018 09:00 224.63 0.00 54.8 -- 74.6 5.0
08/03/2018 08:00 224.63 0.00 54.7 -- 70.2 5.3
08/03/2018 07:00 224.63 0.00 55.2 -- 69.7 5.3
08/03/2018 06:00 224.63 0.00 55.2 -- 70.8 5.8
08/03/2018 05:00 224.64 0.00 54.9 -- 71.2 5.8
08/03/2018 04:00 224.64 0.00 55.1 -- 71.6 5.5
08/03/2018 03:00 224.64 0.00 54.8 -- 72.0 6.0
08/03/2018 02:00 224.64 0.00 54.8 -- 73.0 6.0
08/03/2018 01:00 224.64 0.00 55.2 -- 72.2 6.0
08/03/2018 00:00 224.64 0.00 55.1 1.81 73.1 6.0
08/02/2018 23:00 224.64 0.00 54.9 -- 74.2 6.0
08/02/2018 22:00 224.64 0.00 54.8 -- 75.0 6.0
08/02/2018 21:00 224.64 0.00 55.3 -- 76.7 6.0
08/02/2018 20:00 224.65 0.00 54.6 -- 78.3 6.0
08/02/2018 19:00 224.64 0.00 55.2 -- 84.7 6.3
08/02/2018 18:00 224.65 0.00 55.2 -- 87.0 6.0
08/02/2018 17:00 224.65 0.00 55.0 -- 89.6 6.0
08/02/2018 16:00 224.65 0.00 54.8 -- 87.6 6.5
08/02/2018 15:00 224.66 0.00 55.2 -- 88.1 7.0
08/02/2018 14:00 224.66 0.00 55.2 -- 87.7 6.8
08/02/2018 13:00 224.65 0.00 54.9 -- 85.4 7.0
08/02/2018 12:00 224.66 0.00 54.6 -- 83.0 7.0
08/02/2018 11:00 224.65 0.00 54.6 -- 81.4 6.8
08/02/2018 10:00 224.66 0.00 55.3 -- 77.7 7.0
08/02/2018 09:00 224.66 0.00 54.9 -- 74.2 7.0
08/02/2018 08:00 224.66 0.00 54.8 -- 71.8 7.0
08/02/2018 07:00 224.66 0.00 54.8 -- 70.9 7.0
08/02/2018 06:00 224.66 0.00 55.0 -- 70.3 7.0
08/02/2018 05:00 224.67 0.00 54.9 -- 67.7 7.5
08/02/2018 04:00 224.67 0.00 54.6 -- 67.5 7.3
08/02/2018 03:00 224.66 0.00 54.7 -- 67.9 7.5
08/02/2018 02:00 224.67 0.00 55.0 -- 68.4 8.0
08/02/2018 01:00 224.67 0.00 54.9 -- 69.2 8.0
08/02/2018 00:00 224.67 0.00 54.8 0.00 69.7 8.0
08/01/2018 23:00 224.67 0.01 54.6 -- 69.8 8.0
08/01/2018 22:00 224.68 0.09 55.0 -- 69.8 8.3
08/01/2018 21:00 224.66 0.30 54.9 -- 70.2 6.5
08/01/2018 20:00 224.63 0.01 55.0 -- 70.2 5.5
08/01/2018 19:00 224.64 0.00 55.0 -- 70.5 5.3
08/01/2018 18:00 224.63 0.00 55.2 -- 71.0 5.8
08/01/2018 17:00 224.64 0.00 55.1 -- 72.3 6.0
08/01/2018 16:00 224.64 0.00 55.0 -- 74.0 6.0
08/01/2018 15:00 224.64 0.00 55.0 -- 74.5 6.0
08/01/2018 14:00 224.64 0.00 54.9 -- 77.3 6.0
08/01/2018 13:00 224.64 0.00 54.7 -- 76.1 6.0
08/01/2018 12:00 224.65 0.00 55.3 -- 75.2 6.3
08/01/2018 11:00 224.65 0.00 54.9 -- 76.3 6.3
08/01/2018 10:00 224.65 0.00 54.9 -- 73.5 6.3
08/01/2018 09:00 224.65 0.00 54.9 -- 68.6 7.0
08/01/2018 08:00 224.65 0.00 55.0 -- 64.2 7.0
08/01/2018 07:00 224.65 0.00 55.0 -- 61.6 7.0
08/01/2018 06:00 224.66 0.00 55.1 -- 61.8 7.0
08/01/2018 05:00 224.66 0.00 55.0 -- 62.6 7.0
08/01/2018 04:00 224.66 0.00 55.1 -- 63.3 7.0
08/01/2018 03:00 224.66 0.00 54.8 -- 64.0 7.0
08/01/2018 02:00 224.66 0.00 54.6 -- 64.9 7.0
08/01/2018 01:00 224.67 0.00 55.0 -- 65.5 7.5
08/01/2018 00:00 224.67 0.00 55.1 0.41 66.7 7.8
07/31/2018 23:00 224.67 0.00 54.9 -- 68.1 8.0
07/31/2018 22:00 224.67 0.00 54.8 -- 70.3 8.0
07/31/2018 21:00 224.68 0.00 54.8 -- 73.9 8.0
07/31/2018 20:00 224.68 0.00 54.9 -- 82.1 8.0
07/31/2018 19:00 224.68 0.00 54.9 -- 83.3 8.0
07/31/2018 18:00 224.68 0.00 54.7 -- 88.0 8.3
07/31/2018 17:00 224.68 0.00 54.8 -- 85.5 8.8
07/31/2018 16:00 224.69 0.00 54.9 -- 83.0 9.0
07/31/2018 15:00 224.68 0.00 54.9 -- 85.3 9.0
07/31/2018 14:00 224.69 0.00 54.9 -- 87.1 9.0
07/31/2018 13:00 224.69 0.00 54.8 -- 81.9 9.3
07/31/2018 12:00 224.69 0.00 54.6 -- 80.4 9.0
07/31/2018 11:00 224.70 0.00 54.8 -- 79.3 10.0
07/31/2018 10:00 224.70 0.00 55.1 -- 76.4 10.0
07/31/2018 09:00 224.70 0.00 54.6 -- 68.2 10.0
07/31/2018 08:00 224.70 0.00 54.6 -- 63.1 10.0
07/31/2018 07:00 224.70 0.00 54.7 -- 61.6 10.0
07/31/2018 06:00 224.70 0.00 55.0 -- 61.9 10.0
07/31/2018 05:00 224.71 0.00 54.6 -- 62.7 10.5
07/31/2018 04:00 224.71 0.00 54.6 -- 62.1 11.0
07/31/2018 03:00 224.71 0.00 54.6 -- 63.1 11.0
07/31/2018 02:00 224.71 0.00 54.8 -- 64.6 11.0
07/31/2018 01:00 224.72 0.00 54.8 -- 64.3 11.0
07/31/2018 00:00 224.72 0.00 54.7 0.00 65.5 11.0
07/30/2018 23:00 224.72 0.00 54.6 -- 67.0 11.5
07/30/2018 22:00 224.72 0.00 54.5 -- 69.2 11.8
07/30/2018 21:00 224.72 0.00 54.8 -- 71.2 12.0
07/30/2018 20:00 224.73 0.00 54.2 -- 73.5 12.0
07/30/2018 19:00 224.73 0.00 54.5 -- 77.0 12.0
07/30/2018 18:00 224.73 0.00 54.8 -- 80.2 12.3
07/30/2018 17:00 224.73 0.00 54.8 -- 81.6 13.0
07/30/2018 16:00 224.73 0.00 54.6 -- 80.3 12.8
07/30/2018 15:00 224.74 0.00 54.3 -- 82.1 13.0
07/30/2018 14:00 224.75 0.00 54.8 -- 82.1 13.3
07/30/2018 13:00 224.75 0.00 54.6 -- 80.6 13.3
07/30/2018 12:00 224.75 0.00 54.7 -- 81.3 14.0
07/30/2018 11:00 224.75 0.00 54.5 -- 76.9 14.0
07/30/2018 10:00 224.75 0.00 54.8 -- 71.4 14.0
07/30/2018 09:00 224.75 0.00 54.3 -- 66.6 14.0
07/30/2018 08:00 224.75 0.00 54.2 -- 61.8 14.0
07/30/2018 07:00 224.76 0.00 54.7 -- 59.8 15.0
07/30/2018 06:00 224.76 0.00 54.6 -- 59.6 15.0
07/30/2018 05:00 224.76 0.00 54.2 -- 60.1 15.0
07/30/2018 04:00 224.77 0.00 54.5 -- 60.7 15.3
07/30/2018 03:00 224.77 0.00 54.4 -- 60.8 15.0
07/30/2018 02:00 224.77 0.00 54.5 -- 60.9 15.5
07/30/2018 01:00 224.76 0.00 54.4 -- 62.8 15.0
07/30/2018 00:00 224.76 0.00 54.8 0.00 63.8 15.0
07/29/2018 23:00 224.77 0.00 54.4 -- 65.9 15.3
07/29/2018 22:00 224.77 0.00 54.1 -- 66.3 15.0
07/29/2018 21:00 224.77 0.00 54.7 -- 68.4 15.5
07/29/2018 20:00 224.77 0.00 54.1 -- 77.7 16.0
07/29/2018 19:00 224.77 0.00 54.5 -- 81.4 16.0
07/29/2018 18:00 224.77 0.00 54.5 -- 79.8 16.0
07/29/2018 17:00 224.77 0.00 54.5 -- 81.4 16.3
07/29/2018 16:00 224.78 0.00 54.8 -- 80.4 16.3
07/29/2018 15:00 224.78 0.00 54.6 -- 79.5 16.0
07/29/2018 14:00 224.78 0.00 54.1 -- 78.2 16.5
07/29/2018 13:00 224.78 0.00 54.5 -- 77.1 16.3
07/29/2018 12:00 224.78 0.00 54.1 -- 76.6 16.8
07/29/2018 11:00 224.78 0.00 54.6 -- 73.3 17.0
07/29/2018 10:00 224.78 0.00 54.1 -- 70.8 16.8
07/29/2018 09:00 224.77 0.00 54.3 -- 69.8 17.0
07/29/2018 08:00 224.79 0.00 54.3 -- 69.2 17.0
07/29/2018 07:00 224.79 0.00 54.2 -- 68.6 17.0
07/29/2018 06:00 224.78 0.00 54.1 -- 67.9 16.8
07/29/2018 05:00 224.78 0.00 54.1 -- 67.3 17.0
07/29/2018 04:00 224.77 0.00 54.0 -- 66.7 16.0
07/29/2018 03:00 224.76 0.00 54.0 -- 66.0 15.0
07/29/2018 02:00 224.77 0.01 54.3 -- 66.1 14.3
07/29/2018 01:00 224.75 0.00 54.5 -- 66.7 13.5
07/29/2018 00:00 224.76 0.25 53.8 0.01 67.4 14.0
07/28/2018 23:00 224.73 0.06 53.8 -- 67.8 12.0
07/28/2018 22:00 224.72 0.18 54.2 -- 67.8 12.0
07/28/2018 21:00 224.77 0.18 54.7 -- 67.9 14.3
07/28/2018 20:00 224.75 0.15 53.9 -- 68.3 13.5
07/28/2018 19:00 224.76 0.02 53.6 -- 68.7 14.0
07/28/2018 18:00 224.73 0.00 53.6 -- 77.6 12.0
07/28/2018 17:00 224.72 0.58 54.1 -- 72.4 10.8
07/28/2018 16:00 224.70 0.00 54.2 -- 84.2 9.3
07/28/2018 15:00 224.69 0.00 53.9 -- 83.3 9.0
07/28/2018 14:00 224.67 0.00 53.7 -- 81.7 7.3
07/28/2018 13:00 224.66 0.00 53.7 -- 81.8 6.3
07/28/2018 12:00 224.61 0.00 53.8 -- 78.8 3.5
07/28/2018 11:00 224.59 0.00 54.0 -- 76.6 3.0
07/28/2018 10:00 224.60 0.00 53.5 -- 72.9 3.0
07/28/2018 09:00 224.60 0.00 53.5 -- 69.2 3.0
07/28/2018 08:00 224.59 0.00 53.6 -- 66.7 3.0
07/28/2018 07:00 224.59 0.00 54.0 -- 66.1 3.0
07/28/2018 06:00 224.60 0.00 53.8 -- 66.2 3.0
07/28/2018 05:00 224.60 0.00 53.6 -- 67.0 3.0
07/28/2018 04:00 224.60 0.01 54.0 -- 67.7 3.3
07/28/2018 03:00 224.60 0.00 53.6 -- 67.6 3.3
07/28/2018 02:00 224.60 0.00 53.9 -- 68.0 4.0
07/28/2018 01:00 224.61 0.02 53.4 -- 68.6 3.8
07/28/2018 00:00 224.60 0.03 54.3 1.45 69.0 3.5
07/27/2018 23:00 224.61 0.04 54.2 -- 68.9 4.0
07/27/2018 22:00 224.61 0.04 53.5 -- 69.1 4.0
07/27/2018 21:00 224.61 0.00 53.0 -- 73.9 3.5
07/27/2018 20:00 224.61 0.00 53.7 -- 74.7 4.0
07/27/2018 19:00 224.61 0.00 53.7 -- 80.1 4.0
07/27/2018 18:00 224.60 0.00 53.6 -- 86.2 3.5
07/27/2018 17:00 224.61 0.00 53.3 -- 87.3 3.3
07/27/2018 16:00 224.59 0.00 53.2 -- 86.6 3.0
07/27/2018 15:00 224.59 0.00 53.5 -- 86.3 3.5
07/27/2018 14:00 224.61 0.00 53.3 -- 85.5 3.8
07/27/2018 13:00 224.61 0.00 53.2 -- 83.4 3.5
07/27/2018 12:00 224.60 0.00 53.4 -- 82.1 4.0
07/27/2018 11:00 224.59 0.00 53.3 -- 79.1 3.5
07/27/2018 10:00 224.61 0.00 53.4 -- 74.6 4.0
07/27/2018 09:00 224.61 0.00 53.5 -- 68.5 4.0
07/27/2018 08:00 224.61 0.00 53.3 -- 64.6 4.0
07/27/2018 07:00 224.61 0.00 53.5 -- 63.2 4.0
07/27/2018 06:00 224.61 0.00 53.2 -- 63.5 4.0
07/27/2018 05:00 224.61 0.01 53.3 -- 64.5 4.0
07/27/2018 04:00 224.61 0.00 53.2 -- 65.2 4.0
07/27/2018 03:00 224.62 0.00 53.5 -- 65.9 4.0
07/27/2018 02:00 224.61 0.00 53.3 -- 66.3 4.0
07/27/2018 01:00 224.61 0.00 53.1 -- 67.6 4.0
07/27/2018 00:00 224.62 0.00 53.2 0.12 68.9 4.0
07/26/2018 23:00 224.62 0.00 53.3 -- 70.5 4.0
07/26/2018 22:00 224.62 0.00 53.4 -- 71.0 4.3
07/26/2018 21:00 224.62 0.00 53.3 -- 71.9 4.8
07/26/2018 20:00 224.62 0.00 53.3 -- 78.1 4.3
07/26/2018 19:00 224.62 0.00 53.1 -- 78.2 5.0
07/26/2018 18:00 224.62 0.00 53.0 -- 76.0 5.0
07/26/2018 17:00 224.62 0.00 53.4 -- 74.2 5.0
07/26/2018 16:00 224.62 0.09 53.0 -- 72.2 5.0
07/26/2018 15:00 224.62 0.10 53.3 -- 75.7 5.0
07/26/2018 14:00 224.62 0.00 53.3 -- 77.8 4.0
07/26/2018 13:00 224.62 0.00 53.3 -- 79.1 5.0
07/26/2018 12:00 224.63 0.00 53.3 -- 76.4 4.5
07/26/2018 11:00 224.61 0.00 53.0 -- 75.0 4.3
07/26/2018 10:00 224.61 0.01 52.8 -- 72.8 3.8
07/26/2018 09:00 224.59 0.05 53.5 -- 71.8 3.0
07/26/2018 08:00 224.59 0.06 53.1 -- 70.8 3.0
07/26/2018 07:00 224.59 0.06 53.1 -- 70.8 3.0
07/26/2018 06:00 224.59 0.11 53.1 -- 70.5 3.0
07/26/2018 05:00 224.59 0.08 52.8 -- 71.0 3.0
07/26/2018 04:00 224.59 0.05 53.0 -- 71.5 3.0
07/26/2018 03:00 224.59 0.03 52.9 -- 71.6 3.0
07/26/2018 02:00 224.58 0.02 53.0 -- 71.8 2.5
07/26/2018 01:00 224.58 0.00 53.1 -- 72.1 2.5
07/26/2018 00:00 224.56 0.00 52.9 0.66 72.3 2.0
07/25/2018 23:00 224.56 0.01 53.1 -- 72.9 2.0
07/25/2018 22:00 224.56 0.00 52.9 -- 73.5 1.3
07/25/2018 21:00 224.55 0.00 52.8 -- 74.8 1.0
07/25/2018 20:00 224.55 0.00 52.8 -- 76.0 1.3
07/25/2018 19:00 224.55 0.00 53.6 -- 76.6 1.0
07/25/2018 18:00 224.56 0.00 53.1 -- 77.7 1.0
07/25/2018 17:00 224.55 0.01 53.2 -- 76.8 1.0
07/25/2018 16:00 224.55 0.00 53.3 -- 80.5 1.0
07/25/2018 15:00 224.56 0.00 53.0 -- 83.0 1.3
07/25/2018 14:00 224.55 0.00 52.8 -- 82.7 1.5
07/25/2018 13:00 224.56 0.00 53.3 -- 78.7 1.8
07/25/2018 12:00 224.56 0.00 53.0 -- 83.2 1.3
07/25/2018 11:00 224.55 0.00 53.2 -- 80.0 1.5
07/25/2018 10:00 224.57 0.00 53.3 -- 76.2 1.5
07/25/2018 09:00 224.56 0.00 53.0 -- 74.0 1.3
07/25/2018 08:00 224.56 0.00 53.2 -- 71.5 1.3
07/25/2018 07:00 224.56 0.00 53.2 -- 70.5 1.3
07/25/2018 06:00 224.56 0.00 53.0 -- 70.3 2.0
07/25/2018 05:00 224.57 0.00 52.8 -- 69.9 2.0
07/25/2018 04:00 224.56 0.00 53.4 -- 69.1 1.8
07/25/2018 03:00 224.56 0.00 52.9 -- 68.5 1.8
07/25/2018 02:00 224.56 0.00 53.4 -- 68.3 2.0
07/25/2018 01:00 224.56 0.00 52.5 -- 69.0 2.0
07/25/2018 00:00 224.56 0.00 52.8 0.02 69.8 2.0
07/24/2018 23:00 224.56 0.00 53.5 -- 70.8 2.0
07/24/2018 22:00 224.56 0.00 52.9 -- 72.6 2.0
07/24/2018 21:00 224.56 0.00 52.7 -- 76.2 2.0
07/24/2018 20:00 224.56 0.00 53.0 -- 81.8 2.0
07/24/2018 19:00 224.56 0.00 53.2 -- 81.8 2.0
07/24/2018 18:00 224.57 0.00 53.1 -- 84.1 2.0
07/24/2018 17:00 224.57 0.00 53.1 -- 82.9 2.0
07/24/2018 16:00 224.57 0.00 52.7 -- 82.0 2.0
07/24/2018 15:00 224.57 0.00 52.8 -- 82.8 2.0
07/24/2018 14:00 224.57 0.00 53.3 -- 80.9 2.0
07/24/2018 13:00 224.57 0.00 52.9 -- 80.3 2.3
07/24/2018 12:00 224.58 0.00 52.8 -- 82.1 2.3
07/24/2018 11:00 224.57 0.00 52.8 -- 78.8 1.8
07/24/2018 10:00 224.56 0.00 52.7 -- 74.2 2.0
07/24/2018 09:00 224.57 0.00 53.1 -- 71.4 2.0
07/24/2018 08:00 224.57 0.00 52.9 -- 70.3 2.0
07/24/2018 07:00 224.58 0.00 53.1 -- 69.9 2.3
07/24/2018 06:00 224.57 0.00 52.8 -- 69.6 2.0
07/24/2018 05:00 224.58 0.00 52.8 -- 69.4 2.0
07/24/2018 04:00 224.58 0.00 53.0 -- 69.0 2.5
07/24/2018 03:00 224.57 0.00 53.0 -- 68.2 2.0
07/24/2018 02:00 224.58 0.00 52.8 -- 67.5 2.0
07/24/2018 01:00 224.57 0.00 53.1 -- 68.1 2.0
07/24/2018 00:00 224.58 0.00 52.6 0.00 69.0 2.0
07/23/2018 23:00 224.58 0.00 52.5 -- 70.5 2.5
07/23/2018 22:00 224.57 0.00 52.7 -- 72.0 2.0
07/23/2018 21:00 224.58 0.00 53.0 -- 75.1 2.0
07/23/2018 20:00 224.58 0.00 53.1 -- 81.1 2.0
07/23/2018 19:00 224.58 0.02 52.7 -- 79.5 2.0
07/23/2018 18:00 224.58 0.00 52.4 -- 80.4 2.0
07/23/2018 17:00 224.58 0.00 52.4 -- 82.3 2.3
07/23/2018 16:00 224.58 0.20 53.2 -- 80.0 2.8
07/23/2018 15:00 224.59 0.03 52.8 -- 77.1 3.0
07/23/2018 14:00 224.58 0.06 52.6 -- 75.8 2.0
07/23/2018 13:00 224.57 0.00 52.5 -- 79.2 2.3
07/23/2018 12:00 224.58 0.00 52.8 -- 77.0 2.8
07/23/2018 11:00 224.59 0.00 52.8 -- 74.8 2.3
07/23/2018 10:00 224.55 0.00 52.4 -- 72.1 1.0
07/23/2018 09:00 224.55 0.00 52.7 -- 71.1 1.0
07/23/2018 08:00 224.55 0.00 52.6 -- 70.5 1.0
07/23/2018 07:00 224.55 0.07 52.9 -- 69.5 1.0
07/23/2018 06:00 224.55 0.32 52.7 -- 69.5 1.0
07/23/2018 05:00 224.55 0.00 52.5 -- 69.4 1.0
07/23/2018 04:00 224.54 0.01 52.5 -- 69.5 1.0
07/23/2018 03:00 224.55 0.00 52.7 -- 69.4 1.0
07/23/2018 02:00 224.55 0.00 52.8 -- 69.3 1.0
07/23/2018 01:00 224.54 0.00 52.6 -- 69.3 0.8
07/23/2018 00:00 224.51 0.04 52.5 0.71 69.4 0.0
07/22/2018 23:00 224.51 0.00 52.5 -- 69.7 0.0
07/22/2018 22:00 224.51 0.00 52.7 -- 70.4 0.0
07/22/2018 21:00 224.51 0.00 52.7 -- 71.1 0.0
07/22/2018 20:00 224.52 0.00 52.5 -- 72.5 0.0
07/22/2018 19:00 224.51 0.00 52.1 -- 73.4 0.0
07/22/2018 18:00 224.51 0.00 52.6 -- 71.9 0.0
07/22/2018 17:00 224.51 0.00 52.7 -- 68.3 0.0
07/22/2018 16:00 224.51 0.00 52.6 -- 67.2 0.0
07/22/2018 15:00 224.51 0.02 52.5 -- 65.6 0.0
07/22/2018 14:00 224.51 0.02 52.4 -- 64.4 0.0
07/22/2018 13:00 224.51 0.02 52.6 -- 63.6 0.0
07/22/2018 12:00 224.51 0.04 52.7 -- 62.6 0.0
07/22/2018 11:00 224.51 0.01 52.5 -- 62.7 0.0
07/22/2018 10:00 224.51 0.04 52.3 -- 62.7 0.0
07/22/2018 09:00 224.51 0.00 52.4 -- 62.5 0.0
07/22/2018 08:00 224.51 0.00 52.8 -- 62.9 0.0
07/22/2018 07:00 224.50 0.00 52.3 -- 61.9 0.0
07/22/2018 06:00 224.51 0.00 52.3 -- 61.5 0.0
07/22/2018 05:00 224.50 0.00 52.4 -- 61.7 0.0
07/22/2018 04:00 224.51 0.00 52.7 -- 61.1 0.0
07/22/2018 03:00 224.50 0.00 52.6 -- 61.1 0.0
07/22/2018 02:00 224.50 0.00 52.4 -- 61.5 0.0
07/22/2018 01:00 224.50 0.00 51.9 -- 61.6 0.0
07/22/2018 00:00 224.50 0.00 52.6 0.19 61.5 0.0
07/21/2018 23:00 224.50 0.00 52.3 -- 61.1 0.0
07/21/2018 22:00 224.50 0.00 53.0 -- 64.5 0.0
07/21/2018 21:00 224.51 0.00 52.1 -- 66.0 0.0
07/21/2018 20:00 224.50 0.00 52.0 -- 69.5 0.0
07/21/2018 19:00 224.50 0.00 52.3 -- 74.8 0.0
07/21/2018 18:00 224.50 0.00 52.1 -- 75.1 0.0
07/21/2018 17:00 224.50 0.00 52.3 -- 76.3 0.0
07/21/2018 16:00 224.50 0.00 52.5 -- 75.4 0.0
07/21/2018 15:00 224.50 0.00 52.5 -- 75.8 0.0
07/21/2018 14:00 224.50 0.00 52.0 -- 75.2 0.0
07/21/2018 13:00 -- -- -- -- 74.5 0.0
07/21/2018 12:00 -- -- -- -- 75.2 0.0
07/21/2018 11:00 -- -- -- -- 72.0 0.0
07/21/2018 10:00 -- -- -- -- 67.7 0.0
07/21/2018 09:00 -- -- -- -- 63.0 0.0
07/21/2018 08:00 -- -- -- -- 56.3 0.0
07/21/2018 07:00 -- -- -- -- 55.0 0.0
07/21/2018 06:00 -- -- -- -- 54.0 0.0
07/21/2018 05:00 -- -- -- -- 54.5 0.0
07/21/2018 04:00 -- -- -- -- 54.9 0.0
07/21/2018 03:00 -- -- -- -- 55.6 0.0
07/21/2018 02:00 -- -- -- -- 56.1 0.0
07/21/2018 01:00 -- -- -- -- 57.0 0.0
07/21/2018 00:00 -- -- -- 0.00 58.3 0.0